<?xml version="1.0" encoding="UTF-8" standalone="no" ?>
<gpx xmlns="http://www.topografix.com/GPX/1/1" creator="CompeGPS" version="1.1" xmlns:xsi="http://www.w3.org/2001/XMLSchema-instance" xsi:schemaLocation="http://www.topografix.com/GPX/1/1 http://www.topografix.com/GPX/1/1/gpx.xsd http://www.garmin.com/xmlschemas/GpxExtensions/v3 http://www.garmin.com/xmlschemas/GpxExtensionsv3.xsd http://www.garmin.com/xmlschemas/TrackPointExtension/v1 http://www.garmin.com/xmlschemas/TrackPointExtensionv1.xsd" xmlns:gpxtpx="http://www.garmin.com/xmlschemas/TrackPointExtension/v1">
  <metadata>
    <link href="http://www.compegps.com">
      <text>CompeGPS TEAM, SL</text>
    </link>
    <time>2020-06-24T19:52:00Z</time>
    <bounds maxlat="42.844337" maxlon="0.183508" minlat="42.826814" minlon="0.144113"/>
  </metadata>
    <wpt lat="42.844301" lon="0.160221">
    <ele>2357.9</ele>
    <time>2020-06-24T19:47:22Z</time>
    <name>Col d Aumar</name>
    <desc></desc>
    <sym>Waypoint</sym>
  </wpt>
  <wpt lat="42.839540" lon="0.149877">
    <ele>2189.9</ele>
    <time>2020-06-24T19:47:38Z</time>
    <name>Lac d Aumar</name>
    <desc></desc>
    <sym>Waypoint</sym>
  </wpt>
  <wpt lat="42.838802" lon="0.168086">
    <ele>2426.7</ele>
    <time>2020-06-24T19:47:53Z</time>
    <name>Pic d Anglade</name>
    <desc></desc>
    <sym>Waypoint</sym>
  </wpt>
  <wpt lat="42.833097" lon="0.180726">
    <ele>2406.3</ele>
    <time>2020-06-24T19:48:12Z</time>
    <name>Soum de Monpelat</name>
    <desc></desc>
    <sym>Waypoint</sym>
  </wpt>
  <wpt lat="42.827039" lon="0.183429">
    <ele>2252.0</ele>
    <time>2020-06-24T19:48:34Z</time>
    <name>Col d Estoudou</name>
    <desc></desc>
    <sym>Waypoint</sym>
  </wpt>
<trk>
    <name>crete_anglade</name>
    <userMyTwoNav></userMyTwoNav>
    <serialNumber></serialNumber>
    <trkseg>
      <trkpt lat="42.840405" lon="0.144135">
        <ele>2153.3</ele>
        <time>2020-06-22T04:19:50Z</time>
      </trkpt>
      <trkpt lat="42.840363" lon="0.144259">
        <ele>2153.4</ele>
        <time>2020-06-22T04:20:00Z</time>
      </trkpt>
      <trkpt lat="42.840312" lon="0.144375">
        <ele>2155.8</ele>
        <time>2020-06-22T04:20:11Z</time>
      </trkpt>
      <trkpt lat="42.840259" lon="0.144480">
        <ele>2155.8</ele>
        <time>2020-06-22T04:20:20Z</time>
      </trkpt>
      <trkpt lat="42.840186" lon="0.144569">
        <ele>2156.7</ele>
        <time>2020-06-22T04:20:30Z</time>
      </trkpt>
      <trkpt lat="42.840130" lon="0.144668">
        <ele>2157.5</ele>
        <time>2020-06-22T04:20:42Z</time>
      </trkpt>
      <trkpt lat="42.840046" lon="0.144753">
        <ele>2157.6</ele>
        <time>2020-06-22T04:20:53Z</time>
      </trkpt>
      <trkpt lat="42.840045" lon="0.144869">
        <ele>2158.6</ele>
        <time>2020-06-22T04:21:07Z</time>
      </trkpt>
      <trkpt lat="42.840031" lon="0.144987">
        <ele>2158.6</ele>
        <time>2020-06-22T04:21:19Z</time>
      </trkpt>
      <trkpt lat="42.839994" lon="0.145103">
        <ele>2160.4</ele>
        <time>2020-06-22T04:21:33Z</time>
      </trkpt>
      <trkpt lat="42.839958" lon="0.145218">
        <ele>2163.2</ele>
        <time>2020-06-22T04:21:48Z</time>
      </trkpt>
      <trkpt lat="42.839952" lon="0.145333">
        <ele>2164.1</ele>
        <time>2020-06-22T04:22:00Z</time>
      </trkpt>
      <trkpt lat="42.839935" lon="0.145476">
        <ele>2165.8</ele>
        <time>2020-06-22T04:22:13Z</time>
      </trkpt>
      <trkpt lat="42.839922" lon="0.145499">
        <ele>2167.5</ele>
        <time>2020-06-22T04:22:55Z</time>
      </trkpt>
      <trkpt lat="42.839870" lon="0.145555">
        <ele>2167.6</ele>
        <time>2020-06-22T04:23:10Z</time>
      </trkpt>
      <trkpt lat="42.839783" lon="0.145621">
        <ele>2165.2</ele>
        <time>2020-06-22T04:23:23Z</time>
      </trkpt>
      <trkpt lat="42.839700" lon="0.145680">
        <ele>2165.3</ele>
        <time>2020-06-22T04:23:34Z</time>
      </trkpt>
      <trkpt lat="42.839621" lon="0.145781">
        <ele>2165.4</ele>
        <time>2020-06-22T04:23:48Z</time>
      </trkpt>
      <trkpt lat="42.839573" lon="0.145865">
        <ele>2168.6</ele>
        <time>2020-06-22T04:24:05Z</time>
      </trkpt>
      <trkpt lat="42.839508" lon="0.145953">
        <ele>2168.6</ele>
        <time>2020-06-22T04:24:18Z</time>
      </trkpt>
      <trkpt lat="42.839430" lon="0.146052">
        <ele>2168.6</ele>
        <time>2020-06-22T04:24:29Z</time>
      </trkpt>
      <trkpt lat="42.839371" lon="0.146151">
        <ele>2168.6</ele>
        <time>2020-06-22T04:24:40Z</time>
      </trkpt>
      <trkpt lat="42.839308" lon="0.146244">
        <ele>2169.4</ele>
        <time>2020-06-22T04:24:50Z</time>
      </trkpt>
      <trkpt lat="42.839259" lon="0.146370">
        <ele>2169.4</ele>
        <time>2020-06-22T04:25:00Z</time>
      </trkpt>
      <trkpt lat="42.839236" lon="0.146506">
        <ele>2169.5</ele>
        <time>2020-06-22T04:25:17Z</time>
      </trkpt>
      <trkpt lat="42.839211" lon="0.146608">
        <ele>2170.5</ele>
        <time>2020-06-22T04:25:40Z</time>
      </trkpt>
      <trkpt lat="42.839172" lon="0.146717">
        <ele>2170.4</ele>
        <time>2020-06-22T04:26:00Z</time>
      </trkpt>
      <trkpt lat="42.839184" lon="0.146843">
        <ele>2170.5</ele>
        <time>2020-06-22T04:26:13Z</time>
      </trkpt>
      <trkpt lat="42.839160" lon="0.146973">
        <ele>2170.5</ele>
        <time>2020-06-22T04:26:24Z</time>
      </trkpt>
      <trkpt lat="42.839101" lon="0.147087">
        <ele>2170.5</ele>
        <time>2020-06-22T04:26:34Z</time>
      </trkpt>
      <trkpt lat="42.839096" lon="0.147217">
        <ele>2171.4</ele>
        <time>2020-06-22T04:26:45Z</time>
      </trkpt>
      <trkpt lat="42.839070" lon="0.147335">
        <ele>2172.1</ele>
        <time>2020-06-22T04:26:55Z</time>
      </trkpt>
      <trkpt lat="42.839049" lon="0.147462">
        <ele>2172.1</ele>
        <time>2020-06-22T04:27:05Z</time>
      </trkpt>
      <trkpt lat="42.839044" lon="0.147591">
        <ele>2172.2</ele>
        <time>2020-06-22T04:27:17Z</time>
      </trkpt>
      <trkpt lat="42.839056" lon="0.147716">
        <ele>2172.2</ele>
        <time>2020-06-22T04:27:30Z</time>
      </trkpt>
      <trkpt lat="42.839104" lon="0.147848">
        <ele>2175.3</ele>
        <time>2020-06-22T04:27:54Z</time>
      </trkpt>
      <trkpt lat="42.839180" lon="0.147948">
        <ele>2175.4</ele>
        <time>2020-06-22T04:28:06Z</time>
      </trkpt>
      <trkpt lat="42.839244" lon="0.148042">
        <ele>2176.2</ele>
        <time>2020-06-22T04:28:19Z</time>
      </trkpt>
      <trkpt lat="42.839280" lon="0.148163">
        <ele>2177.0</ele>
        <time>2020-06-22T04:28:30Z</time>
      </trkpt>
      <trkpt lat="42.839280" lon="0.148289">
        <ele>2177.8</ele>
        <time>2020-06-22T04:28:42Z</time>
      </trkpt>
      <trkpt lat="42.839297" lon="0.148421">
        <ele>2178.7</ele>
        <time>2020-06-22T04:28:54Z</time>
      </trkpt>
      <trkpt lat="42.839284" lon="0.148543">
        <ele>2179.7</ele>
        <time>2020-06-22T04:29:06Z</time>
      </trkpt>
      <trkpt lat="42.839274" lon="0.148702">
        <ele>2179.7</ele>
        <time>2020-06-22T04:29:19Z</time>
      </trkpt>
      <trkpt lat="42.839243" lon="0.148822">
        <ele>2179.7</ele>
        <time>2020-06-22T04:29:28Z</time>
      </trkpt>
      <trkpt lat="42.839219" lon="0.148951">
        <ele>2179.8</ele>
        <time>2020-06-22T04:29:37Z</time>
      </trkpt>
      <trkpt lat="42.839268" lon="0.149052">
        <ele>2181.5</ele>
        <time>2020-06-22T04:29:50Z</time>
      </trkpt>
      <trkpt lat="42.839319" lon="0.149162">
        <ele>2183.4</ele>
        <time>2020-06-22T04:30:30Z</time>
      </trkpt>
      <trkpt lat="42.839381" lon="0.149276">
        <ele>2186.9</ele>
        <time>2020-06-22T04:30:42Z</time>
      </trkpt>
      <trkpt lat="42.839441" lon="0.149390">
        <ele>2187.8</ele>
        <time>2020-06-22T04:30:52Z</time>
      </trkpt>
      <trkpt lat="42.839501" lon="0.149509">
        <ele>2189.4</ele>
        <time>2020-06-22T04:31:02Z</time>
      </trkpt>
      <trkpt lat="42.839537" lon="0.149629">
        <ele>2189.4</ele>
        <time>2020-06-22T04:31:11Z</time>
      </trkpt>
      <trkpt lat="42.839551" lon="0.149752">
        <ele>2189.4</ele>
        <time>2020-06-22T04:31:20Z</time>
      </trkpt>
      <trkpt lat="42.839540" lon="0.149877">
        <ele>2189.4</ele>
        <time>2020-06-22T04:31:29Z</time>
      </trkpt>
      <trkpt lat="42.839480" lon="0.149971">
        <ele>2189.4</ele>
        <time>2020-06-22T04:31:38Z</time>
      </trkpt>
      <trkpt lat="42.839401" lon="0.150038">
        <ele>2189.4</ele>
        <time>2020-06-22T04:31:47Z</time>
      </trkpt>
      <trkpt lat="42.839372" lon="0.150145">
        <ele>2190.2</ele>
        <time>2020-06-22T04:31:56Z</time>
      </trkpt>
      <trkpt lat="42.839356" lon="0.150274">
        <ele>2191.0</ele>
        <time>2020-06-22T04:32:06Z</time>
      </trkpt>
      <trkpt lat="42.839349" lon="0.150396">
        <ele>2191.0</ele>
        <time>2020-06-22T04:32:15Z</time>
      </trkpt>
      <trkpt lat="42.839354" lon="0.150526">
        <ele>2191.0</ele>
        <time>2020-06-22T04:32:24Z</time>
      </trkpt>
      <trkpt lat="42.839359" lon="0.150648">
        <ele>2191.0</ele>
        <time>2020-06-22T04:32:32Z</time>
      </trkpt>
      <trkpt lat="42.839356" lon="0.150766">
        <ele>2191.0</ele>
        <time>2020-06-22T04:32:40Z</time>
      </trkpt>
      <trkpt lat="42.839340" lon="0.150886">
        <ele>2191.0</ele>
        <time>2020-06-22T04:32:48Z</time>
      </trkpt>
      <trkpt lat="42.839312" lon="0.151010">
        <ele>2191.0</ele>
        <time>2020-06-22T04:32:56Z</time>
      </trkpt>
      <trkpt lat="42.839284" lon="0.151128">
        <ele>2191.1</ele>
        <time>2020-06-22T04:33:04Z</time>
      </trkpt>
      <trkpt lat="42.839255" lon="0.151247">
        <ele>2191.1</ele>
        <time>2020-06-22T04:33:12Z</time>
      </trkpt>
      <trkpt lat="42.839211" lon="0.151348">
        <ele>2191.1</ele>
        <time>2020-06-22T04:33:20Z</time>
      </trkpt>
      <trkpt lat="42.839173" lon="0.151464">
        <ele>2191.1</ele>
        <time>2020-06-22T04:33:28Z</time>
      </trkpt>
      <trkpt lat="42.839132" lon="0.151580">
        <ele>2191.1</ele>
        <time>2020-06-22T04:33:37Z</time>
      </trkpt>
      <trkpt lat="42.839108" lon="0.151697">
        <ele>2191.1</ele>
        <time>2020-06-22T04:33:45Z</time>
      </trkpt>
      <trkpt lat="42.839105" lon="0.151826">
        <ele>2191.1</ele>
        <time>2020-06-22T04:33:54Z</time>
      </trkpt>
      <trkpt lat="42.839091" lon="0.151956">
        <ele>2191.2</ele>
        <time>2020-06-22T04:34:03Z</time>
      </trkpt>
      <trkpt lat="42.839049" lon="0.152078">
        <ele>2191.2</ele>
        <time>2020-06-22T04:34:12Z</time>
      </trkpt>
      <trkpt lat="42.839015" lon="0.152190">
        <ele>2191.2</ele>
        <time>2020-06-22T04:34:22Z</time>
      </trkpt>
      <trkpt lat="42.838960" lon="0.152286">
        <ele>2191.2</ele>
        <time>2020-06-22T04:34:31Z</time>
      </trkpt>
      <trkpt lat="42.838923" lon="0.152409">
        <ele>2191.3</ele>
        <time>2020-06-22T04:34:40Z</time>
      </trkpt>
      <trkpt lat="42.838914" lon="0.152533">
        <ele>2191.3</ele>
        <time>2020-06-22T04:34:49Z</time>
      </trkpt>
      <trkpt lat="42.838915" lon="0.152669">
        <ele>2191.3</ele>
        <time>2020-06-22T04:34:58Z</time>
      </trkpt>
      <trkpt lat="42.838912" lon="0.152797">
        <ele>2191.3</ele>
        <time>2020-06-22T04:35:08Z</time>
      </trkpt>
      <trkpt lat="42.838913" lon="0.152924">
        <ele>2191.3</ele>
        <time>2020-06-22T04:35:18Z</time>
      </trkpt>
      <trkpt lat="42.838898" lon="0.153050">
        <ele>2191.4</ele>
        <time>2020-06-22T04:35:27Z</time>
      </trkpt>
      <trkpt lat="42.838910" lon="0.153177">
        <ele>2191.4</ele>
        <time>2020-06-22T04:35:36Z</time>
      </trkpt>
      <trkpt lat="42.838890" lon="0.153307">
        <ele>2191.4</ele>
        <time>2020-06-22T04:35:45Z</time>
      </trkpt>
      <trkpt lat="42.838857" lon="0.153432">
        <ele>2191.4</ele>
        <time>2020-06-22T04:35:55Z</time>
      </trkpt>
      <trkpt lat="42.838851" lon="0.153561">
        <ele>2191.4</ele>
        <time>2020-06-22T04:36:04Z</time>
      </trkpt>
      <trkpt lat="42.838879" lon="0.153687">
        <ele>2191.4</ele>
        <time>2020-06-22T04:36:14Z</time>
      </trkpt>
      <trkpt lat="42.838893" lon="0.153812">
        <ele>2191.5</ele>
        <time>2020-06-22T04:36:23Z</time>
      </trkpt>
      <trkpt lat="42.838888" lon="0.153945">
        <ele>2191.5</ele>
        <time>2020-06-22T04:36:33Z</time>
      </trkpt>
      <trkpt lat="42.838906" lon="0.154061">
        <ele>2191.5</ele>
        <time>2020-06-22T04:36:41Z</time>
      </trkpt>
      <trkpt lat="42.838927" lon="0.154189">
        <ele>2191.5</ele>
        <time>2020-06-22T04:36:50Z</time>
      </trkpt>
      <trkpt lat="42.838943" lon="0.154313">
        <ele>2191.5</ele>
        <time>2020-06-22T04:36:59Z</time>
      </trkpt>
      <trkpt lat="42.838932" lon="0.154441">
        <ele>2189.3</ele>
        <time>2020-06-22T04:37:08Z</time>
      </trkpt>
      <trkpt lat="42.838923" lon="0.154572">
        <ele>2189.3</ele>
        <time>2020-06-22T04:37:17Z</time>
      </trkpt>
      <trkpt lat="42.838907" lon="0.154690">
        <ele>2189.3</ele>
        <time>2020-06-22T04:37:26Z</time>
      </trkpt>
      <trkpt lat="42.838880" lon="0.154798">
        <ele>2189.3</ele>
        <time>2020-06-22T04:37:35Z</time>
      </trkpt>
      <trkpt lat="42.838849" lon="0.154924">
        <ele>2189.3</ele>
        <time>2020-06-22T04:37:45Z</time>
      </trkpt>
      <trkpt lat="42.838833" lon="0.155043">
        <ele>2189.4</ele>
        <time>2020-06-22T04:37:56Z</time>
      </trkpt>
      <trkpt lat="42.838832" lon="0.155170">
        <ele>2189.4</ele>
        <time>2020-06-22T04:38:08Z</time>
      </trkpt>
      <trkpt lat="42.838805" lon="0.155294">
        <ele>2189.4</ele>
        <time>2020-06-22T04:38:18Z</time>
      </trkpt>
      <trkpt lat="42.838795" lon="0.155418">
        <ele>2189.4</ele>
        <time>2020-06-22T04:38:27Z</time>
      </trkpt>
      <trkpt lat="42.838795" lon="0.155548">
        <ele>2189.5</ele>
        <time>2020-06-22T04:38:36Z</time>
      </trkpt>
      <trkpt lat="42.838803" lon="0.155661">
        <ele>2189.5</ele>
        <time>2020-06-22T04:38:53Z</time>
      </trkpt>
      <trkpt lat="42.838823" lon="0.155795">
        <ele>2189.5</ele>
        <time>2020-06-22T04:39:02Z</time>
      </trkpt>
      <trkpt lat="42.838838" lon="0.155924">
        <ele>2189.5</ele>
        <time>2020-06-22T04:39:10Z</time>
      </trkpt>
      <trkpt lat="42.838854" lon="0.156052">
        <ele>2189.6</ele>
        <time>2020-06-22T04:39:18Z</time>
      </trkpt>
      <trkpt lat="42.838891" lon="0.156167">
        <ele>2189.6</ele>
        <time>2020-06-22T04:39:26Z</time>
      </trkpt>
      <trkpt lat="42.838939" lon="0.156266">
        <ele>2189.7</ele>
        <time>2020-06-22T04:40:18Z</time>
      </trkpt>
      <trkpt lat="42.838954" lon="0.156385">
        <ele>2192.2</ele>
        <time>2020-06-22T04:40:52Z</time>
      </trkpt>
      <trkpt lat="42.838923" lon="0.156508">
        <ele>2192.2</ele>
        <time>2020-06-22T04:41:03Z</time>
      </trkpt>
      <trkpt lat="42.838888" lon="0.156624">
        <ele>2192.1</ele>
        <time>2020-06-22T04:41:12Z</time>
      </trkpt>
      <trkpt lat="42.838857" lon="0.156748">
        <ele>2192.1</ele>
        <time>2020-06-22T04:41:22Z</time>
      </trkpt>
      <trkpt lat="42.838833" lon="0.156875">
        <ele>2192.2</ele>
        <time>2020-06-22T04:41:32Z</time>
      </trkpt>
      <trkpt lat="42.838836" lon="0.156996">
        <ele>2189.8</ele>
        <time>2020-06-22T04:41:42Z</time>
      </trkpt>
      <trkpt lat="42.838840" lon="0.157082">
        <ele>2189.9</ele>
        <time>2020-06-22T04:42:18Z</time>
      </trkpt>
      <trkpt lat="42.838883" lon="0.157209">
        <ele>2189.9</ele>
        <time>2020-06-22T04:42:28Z</time>
      </trkpt>
      <trkpt lat="42.838967" lon="0.157281">
        <ele>2189.9</ele>
        <time>2020-06-22T04:42:37Z</time>
      </trkpt>
      <trkpt lat="42.839044" lon="0.157365">
        <ele>2189.9</ele>
        <time>2020-06-22T04:42:46Z</time>
      </trkpt>
      <trkpt lat="42.839124" lon="0.157451">
        <ele>2189.9</ele>
        <time>2020-06-22T04:42:56Z</time>
      </trkpt>
      <trkpt lat="42.839181" lon="0.157521">
        <ele>2189.9</ele>
        <time>2020-06-22T04:43:08Z</time>
      </trkpt>
      <trkpt lat="42.839294" lon="0.157552">
        <ele>2190.0</ele>
        <time>2020-06-22T04:43:20Z</time>
      </trkpt>
      <trkpt lat="42.839365" lon="0.157576">
        <ele>2190.0</ele>
        <time>2020-06-22T04:44:05Z</time>
      </trkpt>
      <trkpt lat="42.839459" lon="0.157635">
        <ele>2190.1</ele>
        <time>2020-06-22T04:44:28Z</time>
      </trkpt>
      <trkpt lat="42.839555" lon="0.157638">
        <ele>2190.1</ele>
        <time>2020-06-22T04:44:39Z</time>
      </trkpt>
      <trkpt lat="42.839640" lon="0.157563">
        <ele>2190.1</ele>
        <time>2020-06-22T04:44:51Z</time>
      </trkpt>
      <trkpt lat="42.839722" lon="0.157605">
        <ele>2193.4</ele>
        <time>2020-06-22T04:45:09Z</time>
      </trkpt>
      <trkpt lat="42.839801" lon="0.157688">
        <ele>2195.3</ele>
        <time>2020-06-22T04:45:20Z</time>
      </trkpt>
      <trkpt lat="42.839896" lon="0.157741">
        <ele>2196.0</ele>
        <time>2020-06-22T04:45:30Z</time>
      </trkpt>
      <trkpt lat="42.839978" lon="0.157767">
        <ele>2195.9</ele>
        <time>2020-06-22T04:45:40Z</time>
      </trkpt>
      <trkpt lat="42.840070" lon="0.157804">
        <ele>2196.8</ele>
        <time>2020-06-22T04:45:50Z</time>
      </trkpt>
      <trkpt lat="42.840158" lon="0.157844">
        <ele>2197.8</ele>
        <time>2020-06-22T04:45:59Z</time>
      </trkpt>
      <trkpt lat="42.840243" lon="0.157893">
        <ele>2198.6</ele>
        <time>2020-06-22T04:46:09Z</time>
      </trkpt>
      <trkpt lat="42.840327" lon="0.157951">
        <ele>2200.5</ele>
        <time>2020-06-22T04:46:21Z</time>
      </trkpt>
      <trkpt lat="42.840409" lon="0.158041">
        <ele>2203.3</ele>
        <time>2020-06-22T04:46:35Z</time>
      </trkpt>
      <trkpt lat="42.840492" lon="0.158104">
        <ele>2205.1</ele>
        <time>2020-06-22T04:46:48Z</time>
      </trkpt>
      <trkpt lat="42.840579" lon="0.158163">
        <ele>2206.7</ele>
        <time>2020-06-22T04:47:01Z</time>
      </trkpt>
      <trkpt lat="42.840664" lon="0.158241">
        <ele>2208.4</ele>
        <time>2020-06-22T04:47:12Z</time>
      </trkpt>
      <trkpt lat="42.840754" lon="0.158283">
        <ele>2209.2</ele>
        <time>2020-06-22T04:47:23Z</time>
      </trkpt>
      <trkpt lat="42.840848" lon="0.158293">
        <ele>2213.1</ele>
        <time>2020-06-22T04:47:40Z</time>
      </trkpt>
      <trkpt lat="42.840957" lon="0.158277">
        <ele>2215.9</ele>
        <time>2020-06-22T04:47:58Z</time>
      </trkpt>
      <trkpt lat="42.841047" lon="0.158227">
        <ele>2218.7</ele>
        <time>2020-06-22T04:48:14Z</time>
      </trkpt>
      <trkpt lat="42.841143" lon="0.158169">
        <ele>2221.2</ele>
        <time>2020-06-22T04:48:29Z</time>
      </trkpt>
      <trkpt lat="42.841248" lon="0.158158">
        <ele>2224.6</ele>
        <time>2020-06-22T04:48:47Z</time>
      </trkpt>
      <trkpt lat="42.841271" lon="0.158275">
        <ele>2226.9</ele>
        <time>2020-06-22T04:50:02Z</time>
      </trkpt>
      <trkpt lat="42.841284" lon="0.158403">
        <ele>2228.6</ele>
        <time>2020-06-22T04:50:15Z</time>
      </trkpt>
      <trkpt lat="42.841322" lon="0.158517">
        <ele>2230.4</ele>
        <time>2020-06-22T04:50:29Z</time>
      </trkpt>
      <trkpt lat="42.841415" lon="0.158546">
        <ele>2233.7</ele>
        <time>2020-06-22T04:50:48Z</time>
      </trkpt>
      <trkpt lat="42.841509" lon="0.158531">
        <ele>2235.4</ele>
        <time>2020-06-22T04:51:03Z</time>
      </trkpt>
      <trkpt lat="42.841551" lon="0.158589">
        <ele>2238.7</ele>
        <time>2020-06-22T04:51:21Z</time>
      </trkpt>
      <trkpt lat="42.841576" lon="0.158722">
        <ele>2243.0</ele>
        <time>2020-06-22T04:51:41Z</time>
      </trkpt>
      <trkpt lat="42.841588" lon="0.158851">
        <ele>2244.6</ele>
        <time>2020-06-22T04:51:57Z</time>
      </trkpt>
      <trkpt lat="42.841582" lon="0.158985">
        <ele>2246.2</ele>
        <time>2020-06-22T04:52:13Z</time>
      </trkpt>
      <trkpt lat="42.841615" lon="0.159067">
        <ele>2248.8</ele>
        <time>2020-06-22T04:52:30Z</time>
      </trkpt>
      <trkpt lat="42.841687" lon="0.158971">
        <ele>2251.2</ele>
        <time>2020-06-22T04:52:48Z</time>
      </trkpt>
      <trkpt lat="42.841756" lon="0.158895">
        <ele>2252.8</ele>
        <time>2020-06-22T04:53:03Z</time>
      </trkpt>
      <trkpt lat="42.841801" lon="0.158995">
        <ele>2255.3</ele>
        <time>2020-06-22T04:53:19Z</time>
      </trkpt>
      <trkpt lat="42.841890" lon="0.159034">
        <ele>2257.7</ele>
        <time>2020-06-22T04:53:36Z</time>
      </trkpt>
      <trkpt lat="42.841965" lon="0.158986">
        <ele>2261.9</ele>
        <time>2020-06-22T04:53:57Z</time>
      </trkpt>
      <trkpt lat="42.842039" lon="0.159008">
        <ele>2263.6</ele>
        <time>2020-06-22T04:54:17Z</time>
      </trkpt>
      <trkpt lat="42.842142" lon="0.159041">
        <ele>2266.9</ele>
        <time>2020-06-22T04:54:38Z</time>
      </trkpt>
      <trkpt lat="42.842230" lon="0.159032">
        <ele>2270.1</ele>
        <time>2020-06-22T04:54:59Z</time>
      </trkpt>
      <trkpt lat="42.842250" lon="0.158906">
        <ele>2272.9</ele>
        <time>2020-06-22T04:55:15Z</time>
      </trkpt>
      <trkpt lat="42.842329" lon="0.158852">
        <ele>2275.6</ele>
        <time>2020-06-22T04:55:33Z</time>
      </trkpt>
      <trkpt lat="42.842400" lon="0.158938">
        <ele>2278.1</ele>
        <time>2020-06-22T04:55:51Z</time>
      </trkpt>
      <trkpt lat="42.842450" lon="0.158981">
        <ele>2280.9</ele>
        <time>2020-06-22T04:56:12Z</time>
      </trkpt>
      <trkpt lat="42.842501" lon="0.158849">
        <ele>2283.5</ele>
        <time>2020-06-22T04:56:33Z</time>
      </trkpt>
      <trkpt lat="42.842556" lon="0.158863">
        <ele>2286.1</ele>
        <time>2020-06-22T04:56:54Z</time>
      </trkpt>
      <trkpt lat="42.842591" lon="0.158926">
        <ele>2288.8</ele>
        <time>2020-06-22T04:57:13Z</time>
      </trkpt>
      <trkpt lat="42.842644" lon="0.158972">
        <ele>2292.3</ele>
        <time>2020-06-22T04:57:34Z</time>
      </trkpt>
      <trkpt lat="42.842716" lon="0.159058">
        <ele>2295.8</ele>
        <time>2020-06-22T04:57:55Z</time>
      </trkpt>
      <trkpt lat="42.842732" lon="0.159176">
        <ele>2300.2</ele>
        <time>2020-06-22T04:58:16Z</time>
      </trkpt>
      <trkpt lat="42.842725" lon="0.159309">
        <ele>2301.7</ele>
        <time>2020-06-22T04:58:33Z</time>
      </trkpt>
      <trkpt lat="42.842698" lon="0.159435">
        <ele>2302.6</ele>
        <time>2020-06-22T04:58:47Z</time>
      </trkpt>
      <trkpt lat="42.842753" lon="0.159372">
        <ele>2305.1</ele>
        <time>2020-06-22T04:59:07Z</time>
      </trkpt>
      <trkpt lat="42.842819" lon="0.159288">
        <ele>2307.6</ele>
        <time>2020-06-22T04:59:26Z</time>
      </trkpt>
      <trkpt lat="42.842875" lon="0.159174">
        <ele>2309.3</ele>
        <time>2020-06-22T04:59:43Z</time>
      </trkpt>
      <trkpt lat="42.842943" lon="0.159095">
        <ele>2312.6</ele>
        <time>2020-06-22T05:00:02Z</time>
      </trkpt>
      <trkpt lat="42.843015" lon="0.159107">
        <ele>2316.0</ele>
        <time>2020-06-22T05:00:23Z</time>
      </trkpt>
      <trkpt lat="42.843064" lon="0.159008">
        <ele>2319.4</ele>
        <time>2020-06-22T05:00:47Z</time>
      </trkpt>
      <trkpt lat="42.843127" lon="0.159023">
        <ele>2323.4</ele>
        <time>2020-06-22T05:01:13Z</time>
      </trkpt>
      <trkpt lat="42.843160" lon="0.159128">
        <ele>2327.3</ele>
        <time>2020-06-22T05:01:40Z</time>
      </trkpt>
      <trkpt lat="42.843170" lon="0.159273">
        <ele>2329.9</ele>
        <time>2020-06-22T05:01:58Z</time>
      </trkpt>
      <trkpt lat="42.843178" lon="0.159416">
        <ele>2329.8</ele>
        <time>2020-06-22T05:02:13Z</time>
      </trkpt>
      <trkpt lat="42.843203" lon="0.159569">
        <ele>2333.4</ele>
        <time>2020-06-22T05:02:33Z</time>
      </trkpt>
      <trkpt lat="42.843200" lon="0.159726">
        <ele>2336.8</ele>
        <time>2020-06-22T05:02:56Z</time>
      </trkpt>
      <trkpt lat="42.843225" lon="0.159813">
        <ele>2340.0</ele>
        <time>2020-06-22T05:03:17Z</time>
      </trkpt>
      <trkpt lat="42.843271" lon="0.159850">
        <ele>2343.5</ele>
        <time>2020-06-22T05:03:37Z</time>
      </trkpt>
      <trkpt lat="42.843347" lon="0.159910">
        <ele>2346.0</ele>
        <time>2020-06-22T05:03:57Z</time>
      </trkpt>
      <trkpt lat="42.843418" lon="0.160001">
        <ele>2347.7</ele>
        <time>2020-06-22T05:04:15Z</time>
      </trkpt>
      <trkpt lat="42.843518" lon="0.160038">
        <ele>2349.3</ele>
        <time>2020-06-22T05:04:29Z</time>
      </trkpt>
      <trkpt lat="42.843592" lon="0.160059">
        <ele>2351.3</ele>
        <time>2020-06-22T05:04:47Z</time>
      </trkpt>
      <trkpt lat="42.843692" lon="0.160077">
        <ele>2354.4</ele>
        <time>2020-06-22T05:05:05Z</time>
      </trkpt>
      <trkpt lat="42.843779" lon="0.160132">
        <ele>2357.0</ele>
        <time>2020-06-22T05:05:25Z</time>
      </trkpt>
      <trkpt lat="42.843850" lon="0.160199">
        <ele>2359.7</ele>
        <time>2020-06-22T05:05:44Z</time>
      </trkpt>
      <trkpt lat="42.843916" lon="0.160176">
        <ele>2361.5</ele>
        <time>2020-06-22T05:06:03Z</time>
      </trkpt>
      <trkpt lat="42.843972" lon="0.160305">
        <ele>2365.0</ele>
        <time>2020-06-22T05:06:22Z</time>
      </trkpt>
      <trkpt lat="42.844021" lon="0.160374">
        <ele>2367.9</ele>
        <time>2020-06-22T05:06:39Z</time>
      </trkpt>
      <trkpt lat="42.844095" lon="0.160279">
        <ele>2368.8</ele>
        <time>2020-06-22T05:06:52Z</time>
      </trkpt>
      <trkpt lat="42.844159" lon="0.160224">
        <ele>2369.7</ele>
        <time>2020-06-22T05:07:10Z</time>
      </trkpt>
      <trkpt lat="42.844246" lon="0.160183">
        <ele>2371.6</ele>
        <time>2020-06-22T05:07:25Z</time>
      </trkpt>
      <trkpt lat="42.844337" lon="0.160155">
        <ele>2372.4</ele>
        <time>2020-06-22T05:07:43Z</time>
      </trkpt>
      <trkpt lat="42.844301" lon="0.160221">
        <ele>2373.9</ele>
        <time>2020-06-22T05:12:44Z</time>
      </trkpt>
      <trkpt lat="42.844283" lon="0.160351">
        <ele>2374.8</ele>
        <time>2020-06-22T05:12:59Z</time>
      </trkpt>
      <trkpt lat="42.844244" lon="0.160476">
        <ele>2374.8</ele>
        <time>2020-06-22T05:13:14Z</time>
      </trkpt>
      <trkpt lat="42.844192" lon="0.160594">
        <ele>2376.6</ele>
        <time>2020-06-22T05:13:32Z</time>
      </trkpt>
      <trkpt lat="42.844123" lon="0.160670">
        <ele>2380.0</ele>
        <time>2020-06-22T05:13:58Z</time>
      </trkpt>
      <trkpt lat="42.844035" lon="0.160737">
        <ele>2383.2</ele>
        <time>2020-06-22T05:14:22Z</time>
      </trkpt>
      <trkpt lat="42.843964" lon="0.160824">
        <ele>2386.6</ele>
        <time>2020-06-22T05:14:48Z</time>
      </trkpt>
      <trkpt lat="42.843906" lon="0.160916">
        <ele>2390.7</ele>
        <time>2020-06-22T05:15:11Z</time>
      </trkpt>
      <trkpt lat="42.843830" lon="0.160992">
        <ele>2393.9</ele>
        <time>2020-06-22T05:15:36Z</time>
      </trkpt>
      <trkpt lat="42.843787" lon="0.161074">
        <ele>2399.9</ele>
        <time>2020-06-22T05:16:17Z</time>
      </trkpt>
      <trkpt lat="42.843765" lon="0.161185">
        <ele>2403.9</ele>
        <time>2020-06-22T05:16:45Z</time>
      </trkpt>
      <trkpt lat="42.843712" lon="0.161277">
        <ele>2409.1</ele>
        <time>2020-06-22T05:17:21Z</time>
      </trkpt>
      <trkpt lat="42.843642" lon="0.161355">
        <ele>2414.3</ele>
        <time>2020-06-22T05:17:54Z</time>
      </trkpt>
      <trkpt lat="42.843582" lon="0.161442">
        <ele>2421.3</ele>
        <time>2020-06-22T05:18:34Z</time>
      </trkpt>
      <trkpt lat="42.843529" lon="0.161465">
        <ele>2425.3</ele>
        <time>2020-06-22T05:19:09Z</time>
      </trkpt>
      <trkpt lat="42.843460" lon="0.161507">
        <ele>2433.0</ele>
        <time>2020-06-22T05:20:23Z</time>
      </trkpt>
      <trkpt lat="42.843429" lon="0.161539">
        <ele>2435.9</ele>
        <time>2020-06-22T05:24:35Z</time>
      </trkpt>
      <trkpt lat="42.843432" lon="0.161516">
        <ele>2437.9</ele>
        <time>2020-06-22T05:28:06Z</time>
      </trkpt>
      <trkpt lat="42.843379" lon="0.161615">
        <ele>2439.8</ele>
        <time>2020-06-22T05:28:34Z</time>
      </trkpt>
      <trkpt lat="42.843316" lon="0.161718">
        <ele>2443.2</ele>
        <time>2020-06-22T05:29:00Z</time>
      </trkpt>
      <trkpt lat="42.843254" lon="0.161808">
        <ele>2447.4</ele>
        <time>2020-06-22T05:29:55Z</time>
      </trkpt>
      <trkpt lat="42.843201" lon="0.161849">
        <ele>2450.7</ele>
        <time>2020-06-22T05:30:43Z</time>
      </trkpt>
      <trkpt lat="42.843173" lon="0.161807">
        <ele>2458.6</ele>
        <time>2020-06-22T05:32:26Z</time>
      </trkpt>
      <trkpt lat="42.843102" lon="0.161885">
        <ele>2459.3</ele>
        <time>2020-06-22T05:32:59Z</time>
      </trkpt>
      <trkpt lat="42.843064" lon="0.161948">
        <ele>2461.1</ele>
        <time>2020-06-22T05:34:35Z</time>
      </trkpt>
      <trkpt lat="42.843102" lon="0.162041">
        <ele>2455.9</ele>
        <time>2020-06-22T05:37:05Z</time>
      </trkpt>
      <trkpt lat="42.843041" lon="0.162115">
        <ele>2454.4</ele>
        <time>2020-06-22T05:37:57Z</time>
      </trkpt>
      <trkpt lat="42.842954" lon="0.162179">
        <ele>2454.5</ele>
        <time>2020-06-22T05:38:32Z</time>
      </trkpt>
      <trkpt lat="42.842855" lon="0.162181">
        <ele>2457.8</ele>
        <time>2020-06-22T05:39:17Z</time>
      </trkpt>
      <trkpt lat="42.842785" lon="0.162253">
        <ele>2458.7</ele>
        <time>2020-06-22T05:39:42Z</time>
      </trkpt>
      <trkpt lat="42.842742" lon="0.162364">
        <ele>2453.2</ele>
        <time>2020-06-22T05:40:16Z</time>
      </trkpt>
      <trkpt lat="42.842683" lon="0.162446">
        <ele>2450.7</ele>
        <time>2020-06-22T05:40:37Z</time>
      </trkpt>
      <trkpt lat="42.842617" lon="0.162519">
        <ele>2448.3</ele>
        <time>2020-06-22T05:41:00Z</time>
      </trkpt>
      <trkpt lat="42.842542" lon="0.162609">
        <ele>2446.7</ele>
        <time>2020-06-22T05:41:16Z</time>
      </trkpt>
      <trkpt lat="42.842493" lon="0.162718">
        <ele>2445.7</ele>
        <time>2020-06-22T05:41:33Z</time>
      </trkpt>
      <trkpt lat="42.842430" lon="0.162817">
        <ele>2445.7</ele>
        <time>2020-06-22T05:41:46Z</time>
      </trkpt>
      <trkpt lat="42.842375" lon="0.162889">
        <ele>2448.1</ele>
        <time>2020-06-22T05:42:07Z</time>
      </trkpt>
      <trkpt lat="42.842318" lon="0.162975">
        <ele>2451.4</ele>
        <time>2020-06-22T05:42:31Z</time>
      </trkpt>
      <trkpt lat="42.842238" lon="0.163035">
        <ele>2456.6</ele>
        <time>2020-06-22T05:43:01Z</time>
      </trkpt>
      <trkpt lat="42.842164" lon="0.163115">
        <ele>2459.8</ele>
        <time>2020-06-22T05:43:38Z</time>
      </trkpt>
      <trkpt lat="42.842115" lon="0.163218">
        <ele>2464.2</ele>
        <time>2020-06-22T05:44:08Z</time>
      </trkpt>
      <trkpt lat="42.842068" lon="0.163316">
        <ele>2468.6</ele>
        <time>2020-06-22T05:44:32Z</time>
      </trkpt>
      <trkpt lat="42.842041" lon="0.163427">
        <ele>2471.1</ele>
        <time>2020-06-22T05:44:55Z</time>
      </trkpt>
      <trkpt lat="42.842016" lon="0.163543">
        <ele>2474.4</ele>
        <time>2020-06-22T05:45:18Z</time>
      </trkpt>
      <trkpt lat="42.841948" lon="0.163635">
        <ele>2477.7</ele>
        <time>2020-06-22T05:45:52Z</time>
      </trkpt>
      <trkpt lat="42.841923" lon="0.163730">
        <ele>2483.7</ele>
        <time>2020-06-22T05:46:31Z</time>
      </trkpt>
      <trkpt lat="42.841886" lon="0.163790">
        <ele>2486.5</ele>
        <time>2020-06-22T05:47:18Z</time>
      </trkpt>
      <trkpt lat="42.841902" lon="0.163923">
        <ele>2487.3</ele>
        <time>2020-06-22T05:48:35Z</time>
      </trkpt>
      <trkpt lat="42.841888" lon="0.164052">
        <ele>2488.1</ele>
        <time>2020-06-22T05:49:16Z</time>
      </trkpt>
      <trkpt lat="42.841864" lon="0.164159">
        <ele>2490.6</ele>
        <time>2020-06-22T05:49:40Z</time>
      </trkpt>
      <trkpt lat="42.841821" lon="0.164273">
        <ele>2495.6</ele>
        <time>2020-06-22T05:50:24Z</time>
      </trkpt>
      <trkpt lat="42.841775" lon="0.164370">
        <ele>2499.0</ele>
        <time>2020-06-22T05:50:44Z</time>
      </trkpt>
      <trkpt lat="42.841777" lon="0.164348">
        <ele>2497.5</ele>
        <time>2020-06-22T05:52:37Z</time>
      </trkpt>
      <trkpt lat="42.841688" lon="0.164309">
        <ele>2494.9</ele>
        <time>2020-06-22T05:53:20Z</time>
      </trkpt>
      <trkpt lat="42.841592" lon="0.164299">
        <ele>2493.5</ele>
        <time>2020-06-22T05:55:13Z</time>
      </trkpt>
      <trkpt lat="42.841514" lon="0.164361">
        <ele>2493.4</ele>
        <time>2020-06-22T05:55:36Z</time>
      </trkpt>
      <trkpt lat="42.841455" lon="0.164321">
        <ele>2487.0</ele>
        <time>2020-06-22T05:57:16Z</time>
      </trkpt>
      <trkpt lat="42.841353" lon="0.164358">
        <ele>2483.4</ele>
        <time>2020-06-22T05:58:05Z</time>
      </trkpt>
      <trkpt lat="42.841314" lon="0.164437">
        <ele>2482.7</ele>
        <time>2020-06-22T05:58:51Z</time>
      </trkpt>
      <trkpt lat="42.841270" lon="0.164455">
        <ele>2478.1</ele>
        <time>2020-06-22T06:00:32Z</time>
      </trkpt>
      <trkpt lat="42.841231" lon="0.164509">
        <ele>2478.1</ele>
        <time>2020-06-22T06:01:52Z</time>
      </trkpt>
      <trkpt lat="42.841135" lon="0.164536">
        <ele>2476.7</ele>
        <time>2020-06-22T06:02:22Z</time>
      </trkpt>
      <trkpt lat="42.841050" lon="0.164555">
        <ele>2474.4</ele>
        <time>2020-06-22T06:04:02Z</time>
      </trkpt>
      <trkpt lat="42.840967" lon="0.164602">
        <ele>2473.6</ele>
        <time>2020-06-22T06:04:26Z</time>
      </trkpt>
      <trkpt lat="42.840930" lon="0.164697">
        <ele>2470.1</ele>
        <time>2020-06-22T06:04:49Z</time>
      </trkpt>
      <trkpt lat="42.840836" lon="0.164753">
        <ele>2467.9</ele>
        <time>2020-06-22T06:05:47Z</time>
      </trkpt>
      <trkpt lat="42.840784" lon="0.164864">
        <ele>2463.1</ele>
        <time>2020-06-22T06:06:42Z</time>
      </trkpt>
      <trkpt lat="42.840754" lon="0.164893">
        <ele>2459.2</ele>
        <time>2020-06-22T06:08:36Z</time>
      </trkpt>
      <trkpt lat="42.840683" lon="0.164955">
        <ele>2457.3</ele>
        <time>2020-06-22T06:10:12Z</time>
      </trkpt>
      <trkpt lat="42.840604" lon="0.164973">
        <ele>2453.0</ele>
        <time>2020-06-22T06:12:11Z</time>
      </trkpt>
      <trkpt lat="42.840528" lon="0.165050">
        <ele>2455.4</ele>
        <time>2020-06-22T06:12:43Z</time>
      </trkpt>
      <trkpt lat="42.840448" lon="0.165184">
        <ele>2456.8</ele>
        <time>2020-06-22T06:14:42Z</time>
      </trkpt>
      <trkpt lat="42.840369" lon="0.165214">
        <ele>2458.5</ele>
        <time>2020-06-22T06:15:50Z</time>
      </trkpt>
      <trkpt lat="42.840335" lon="0.165178">
        <ele>2454.5</ele>
        <time>2020-06-22T06:17:39Z</time>
      </trkpt>
      <trkpt lat="42.840257" lon="0.165221">
        <ele>2452.0</ele>
        <time>2020-06-22T06:18:41Z</time>
      </trkpt>
      <trkpt lat="42.840164" lon="0.165302">
        <ele>2458.6</ele>
        <time>2020-06-22T06:19:39Z</time>
      </trkpt>
      <trkpt lat="42.840109" lon="0.165372">
        <ele>2457.0</ele>
        <time>2020-06-22T06:22:18Z</time>
      </trkpt>
      <trkpt lat="42.840040" lon="0.165419">
        <ele>2456.2</ele>
        <time>2020-06-22T06:24:04Z</time>
      </trkpt>
      <trkpt lat="42.839961" lon="0.165504">
        <ele>2456.3</ele>
        <time>2020-06-22T06:24:46Z</time>
      </trkpt>
      <trkpt lat="42.839885" lon="0.165585">
        <ele>2464.4</ele>
        <time>2020-06-22T06:25:34Z</time>
      </trkpt>
      <trkpt lat="42.839851" lon="0.165623">
        <ele>2468.5</ele>
        <time>2020-06-22T06:26:20Z</time>
      </trkpt>
      <trkpt lat="42.839838" lon="0.165758">
        <ele>2473.6</ele>
        <time>2020-06-22T06:27:10Z</time>
      </trkpt>
      <trkpt lat="42.839814" lon="0.165839">
        <ele>2474.4</ele>
        <time>2020-06-22T06:27:30Z</time>
      </trkpt>
      <trkpt lat="42.839760" lon="0.165917">
        <ele>2477.0</ele>
        <time>2020-06-22T06:27:59Z</time>
      </trkpt>
      <trkpt lat="42.839703" lon="0.166028">
        <ele>2478.7</ele>
        <time>2020-06-22T06:28:30Z</time>
      </trkpt>
      <trkpt lat="42.839691" lon="0.166092">
        <ele>2481.3</ele>
        <time>2020-06-22T06:29:28Z</time>
      </trkpt>
      <trkpt lat="42.839634" lon="0.166184">
        <ele>2482.9</ele>
        <time>2020-06-22T06:30:10Z</time>
      </trkpt>
      <trkpt lat="42.839600" lon="0.166217">
        <ele>2484.1</ele>
        <time>2020-06-22T06:44:12Z</time>
      </trkpt>
      <trkpt lat="42.839598" lon="0.166252">
        <ele>2480.3</ele>
        <time>2020-06-22T06:45:11Z</time>
      </trkpt>
      <trkpt lat="42.839603" lon="0.166284">
        <ele>2479.6</ele>
        <time>2020-06-22T06:45:46Z</time>
      </trkpt>
      <trkpt lat="42.839631" lon="0.166297">
        <ele>2479.1</ele>
        <time>2020-06-22T06:46:38Z</time>
      </trkpt>
      <trkpt lat="42.839631" lon="0.166363">
        <ele>2474.1</ele>
        <time>2020-06-22T06:47:41Z</time>
      </trkpt>
      <trkpt lat="42.839622" lon="0.166387">
        <ele>2470.5</ele>
        <time>2020-06-22T06:48:18Z</time>
      </trkpt>
      <trkpt lat="42.839596" lon="0.166401">
        <ele>2468.4</ele>
        <time>2020-06-22T06:49:05Z</time>
      </trkpt>
      <trkpt lat="42.839542" lon="0.166440">
        <ele>2468.6</ele>
        <time>2020-06-22T06:49:41Z</time>
      </trkpt>
      <trkpt lat="42.839483" lon="0.166429">
        <ele>2472.9</ele>
        <time>2020-06-22T06:50:17Z</time>
      </trkpt>
      <trkpt lat="42.839408" lon="0.166436">
        <ele>2476.1</ele>
        <time>2020-06-22T06:50:48Z</time>
      </trkpt>
      <trkpt lat="42.839395" lon="0.166518">
        <ele>2483.4</ele>
        <time>2020-06-22T06:52:44Z</time>
      </trkpt>
      <trkpt lat="42.839367" lon="0.166612">
        <ele>2489.4</ele>
        <time>2020-06-22T06:53:40Z</time>
      </trkpt>
      <trkpt lat="42.839328" lon="0.166689">
        <ele>2489.4</ele>
        <time>2020-06-22T06:54:49Z</time>
      </trkpt>
      <trkpt lat="42.839269" lon="0.166710">
        <ele>2490.3</ele>
        <time>2020-06-22T06:55:26Z</time>
      </trkpt>
      <trkpt lat="42.839243" lon="0.166819">
        <ele>2490.2</ele>
        <time>2020-06-22T06:55:48Z</time>
      </trkpt>
      <trkpt lat="42.839197" lon="0.166892">
        <ele>2485.5</ele>
        <time>2020-06-22T06:56:38Z</time>
      </trkpt>
      <trkpt lat="42.839196" lon="0.166985">
        <ele>2481.3</ele>
        <time>2020-06-22T06:57:03Z</time>
      </trkpt>
      <trkpt lat="42.839262" lon="0.167039">
        <ele>2480.5</ele>
        <time>2020-06-22T06:57:47Z</time>
      </trkpt>
      <trkpt lat="42.839301" lon="0.167134">
        <ele>2483.0</ele>
        <time>2020-06-22T06:58:19Z</time>
      </trkpt>
      <trkpt lat="42.839264" lon="0.167259">
        <ele>2485.9</ele>
        <time>2020-06-22T06:58:48Z</time>
      </trkpt>
      <trkpt lat="42.839207" lon="0.167331">
        <ele>2491.0</ele>
        <time>2020-06-22T06:59:48Z</time>
      </trkpt>
      <trkpt lat="42.839171" lon="0.167446">
        <ele>2496.8</ele>
        <time>2020-06-22T07:00:48Z</time>
      </trkpt>
      <trkpt lat="42.839167" lon="0.167430">
        <ele>2499.3</ele>
        <time>2020-06-22T07:02:05Z</time>
      </trkpt>
      <trkpt lat="42.839146" lon="0.167524">
        <ele>2499.2</ele>
        <time>2020-06-22T07:02:58Z</time>
      </trkpt>
      <trkpt lat="42.839124" lon="0.167512">
        <ele>2497.0</ele>
        <time>2020-06-22T07:05:05Z</time>
      </trkpt>
      <trkpt lat="42.839105" lon="0.167577">
        <ele>2496.4</ele>
        <time>2020-06-22T07:05:38Z</time>
      </trkpt>
      <trkpt lat="42.839099" lon="0.167681">
        <ele>2498.8</ele>
        <time>2020-06-22T07:06:57Z</time>
      </trkpt>
      <trkpt lat="42.839064" lon="0.167753">
        <ele>2503.4</ele>
        <time>2020-06-22T07:09:32Z</time>
      </trkpt>
      <trkpt lat="42.838997" lon="0.167849">
        <ele>2502.0</ele>
        <time>2020-06-22T07:10:41Z</time>
      </trkpt>
      <trkpt lat="42.838933" lon="0.167938">
        <ele>2501.3</ele>
        <time>2020-06-22T07:11:16Z</time>
      </trkpt>
      <trkpt lat="42.838880" lon="0.168035">
        <ele>2503.6</ele>
        <time>2020-06-22T07:11:43Z</time>
      </trkpt>
      <trkpt lat="42.838802" lon="0.168086">
        <ele>2505.4</ele>
        <time>2020-06-22T07:12:09Z</time>
      </trkpt>
      <trkpt lat="42.838796" lon="0.168100">
        <ele>2505.9</ele>
        <time>2020-06-22T07:47:45Z</time>
      </trkpt>
      <trkpt lat="42.838788" lon="0.168194">
        <ele>2506.3</ele>
        <time>2020-06-22T07:49:25Z</time>
      </trkpt>
      <trkpt lat="42.838831" lon="0.168291">
        <ele>2506.3</ele>
        <time>2020-06-22T07:49:59Z</time>
      </trkpt>
      <trkpt lat="42.838879" lon="0.168368">
        <ele>2502.9</ele>
        <time>2020-06-22T07:50:23Z</time>
      </trkpt>
      <trkpt lat="42.838899" lon="0.168494">
        <ele>2501.3</ele>
        <time>2020-06-22T07:50:58Z</time>
      </trkpt>
      <trkpt lat="42.838872" lon="0.168623">
        <ele>2495.5</ele>
        <time>2020-06-22T07:52:06Z</time>
      </trkpt>
      <trkpt lat="42.838820" lon="0.168698">
        <ele>2492.3</ele>
        <time>2020-06-22T07:53:46Z</time>
      </trkpt>
      <trkpt lat="42.838851" lon="0.168801">
        <ele>2489.9</ele>
        <time>2020-06-22T07:54:07Z</time>
      </trkpt>
      <trkpt lat="42.838856" lon="0.168932">
        <ele>2483.0</ele>
        <time>2020-06-22T07:54:51Z</time>
      </trkpt>
      <trkpt lat="42.838831" lon="0.169060">
        <ele>2479.7</ele>
        <time>2020-06-22T07:55:27Z</time>
      </trkpt>
      <trkpt lat="42.838793" lon="0.169179">
        <ele>2474.8</ele>
        <time>2020-06-22T07:56:11Z</time>
      </trkpt>
      <trkpt lat="42.838786" lon="0.169310">
        <ele>2469.6</ele>
        <time>2020-06-22T07:57:02Z</time>
      </trkpt>
      <trkpt lat="42.838756" lon="0.169426">
        <ele>2468.0</ele>
        <time>2020-06-22T07:57:30Z</time>
      </trkpt>
      <trkpt lat="42.838744" lon="0.169534">
        <ele>2466.4</ele>
        <time>2020-06-22T07:59:18Z</time>
      </trkpt>
      <trkpt lat="42.838776" lon="0.169650">
        <ele>2461.5</ele>
        <time>2020-06-22T08:00:09Z</time>
      </trkpt>
      <trkpt lat="42.838736" lon="0.169751">
        <ele>2458.1</ele>
        <time>2020-06-22T08:00:36Z</time>
      </trkpt>
      <trkpt lat="42.838661" lon="0.169844">
        <ele>2451.7</ele>
        <time>2020-06-22T08:02:29Z</time>
      </trkpt>
      <trkpt lat="42.838639" lon="0.169951">
        <ele>2451.0</ele>
        <time>2020-06-22T08:03:07Z</time>
      </trkpt>
      <trkpt lat="42.838615" lon="0.169990">
        <ele>2448.7</ele>
        <time>2020-06-22T08:05:44Z</time>
      </trkpt>
      <trkpt lat="42.838572" lon="0.170054">
        <ele>2444.4</ele>
        <time>2020-06-22T08:06:49Z</time>
      </trkpt>
      <trkpt lat="42.838498" lon="0.170102">
        <ele>2435.4</ele>
        <time>2020-06-22T08:10:23Z</time>
      </trkpt>
      <trkpt lat="42.838470" lon="0.170180">
        <ele>2435.1</ele>
        <time>2020-06-22T08:13:00Z</time>
      </trkpt>
      <trkpt lat="42.838441" lon="0.170170">
        <ele>2433.3</ele>
        <time>2020-06-22T08:14:20Z</time>
      </trkpt>
      <trkpt lat="42.838372" lon="0.170255">
        <ele>2429.2</ele>
        <time>2020-06-22T08:16:36Z</time>
      </trkpt>
      <trkpt lat="42.838349" lon="0.170386">
        <ele>2426.6</ele>
        <time>2020-06-22T08:17:07Z</time>
      </trkpt>
      <trkpt lat="42.838310" lon="0.170499">
        <ele>2423.4</ele>
        <time>2020-06-22T08:17:42Z</time>
      </trkpt>
      <trkpt lat="42.838296" lon="0.170623">
        <ele>2423.4</ele>
        <time>2020-06-22T08:18:25Z</time>
      </trkpt>
      <trkpt lat="42.838268" lon="0.170736">
        <ele>2423.3</ele>
        <time>2020-06-22T08:19:24Z</time>
      </trkpt>
      <trkpt lat="42.838277" lon="0.170844">
        <ele>2423.1</ele>
        <time>2020-06-22T08:20:39Z</time>
      </trkpt>
      <trkpt lat="42.838251" lon="0.170955">
        <ele>2423.1</ele>
        <time>2020-06-22T08:22:10Z</time>
      </trkpt>
      <trkpt lat="42.838217" lon="0.171069">
        <ele>2423.0</ele>
        <time>2020-06-22T08:22:31Z</time>
      </trkpt>
      <trkpt lat="42.838205" lon="0.171170">
        <ele>2419.8</ele>
        <time>2020-06-22T08:23:31Z</time>
      </trkpt>
      <trkpt lat="42.838158" lon="0.171252">
        <ele>2417.9</ele>
        <time>2020-06-22T08:26:59Z</time>
      </trkpt>
      <trkpt lat="42.838147" lon="0.171381">
        <ele>2417.2</ele>
        <time>2020-06-22T08:27:45Z</time>
      </trkpt>
      <trkpt lat="42.838143" lon="0.171503">
        <ele>2416.3</ele>
        <time>2020-06-22T08:28:23Z</time>
      </trkpt>
      <trkpt lat="42.838093" lon="0.171607">
        <ele>2419.6</ele>
        <time>2020-06-22T08:28:49Z</time>
      </trkpt>
      <trkpt lat="42.838088" lon="0.171706">
        <ele>2419.4</ele>
        <time>2020-06-22T08:29:07Z</time>
      </trkpt>
      <trkpt lat="42.838040" lon="0.171824">
        <ele>2421.9</ele>
        <time>2020-06-22T08:29:31Z</time>
      </trkpt>
      <trkpt lat="42.837999" lon="0.171919">
        <ele>2417.6</ele>
        <time>2020-06-22T08:30:31Z</time>
      </trkpt>
      <trkpt lat="42.837933" lon="0.171952">
        <ele>2414.2</ele>
        <time>2020-06-22T08:32:04Z</time>
      </trkpt>
      <trkpt lat="42.837881" lon="0.172032">
        <ele>2413.4</ele>
        <time>2020-06-22T08:33:25Z</time>
      </trkpt>
      <trkpt lat="42.837847" lon="0.172058">
        <ele>2412.1</ele>
        <time>2020-06-22T08:34:52Z</time>
      </trkpt>
      <trkpt lat="42.837822" lon="0.172084">
        <ele>2405.9</ele>
        <time>2020-06-22T08:36:34Z</time>
      </trkpt>
      <trkpt lat="42.837748" lon="0.172038">
        <ele>2402.7</ele>
        <time>2020-06-22T08:37:31Z</time>
      </trkpt>
      <trkpt lat="42.837789" lon="0.171964">
        <ele>2400.3</ele>
        <time>2020-06-22T08:38:51Z</time>
      </trkpt>
      <trkpt lat="42.837732" lon="0.171884">
        <ele>2394.6</ele>
        <time>2020-06-22T08:39:24Z</time>
      </trkpt>
      <trkpt lat="42.837654" lon="0.171878">
        <ele>2387.9</ele>
        <time>2020-06-22T08:39:59Z</time>
      </trkpt>
      <trkpt lat="42.837591" lon="0.171963">
        <ele>2383.6</ele>
        <time>2020-06-22T08:40:26Z</time>
      </trkpt>
      <trkpt lat="42.837503" lon="0.172086">
        <ele>2381.4</ele>
        <time>2020-06-22T08:40:45Z</time>
      </trkpt>
      <trkpt lat="42.837461" lon="0.172193">
        <ele>2380.9</ele>
        <time>2020-06-22T08:41:16Z</time>
      </trkpt>
      <trkpt lat="42.837442" lon="0.172263">
        <ele>2380.6</ele>
        <time>2020-06-22T08:42:40Z</time>
      </trkpt>
      <trkpt lat="42.837390" lon="0.172320">
        <ele>2378.8</ele>
        <time>2020-06-22T08:43:21Z</time>
      </trkpt>
      <trkpt lat="42.837296" lon="0.172396">
        <ele>2376.0</ele>
        <time>2020-06-22T08:43:43Z</time>
      </trkpt>
      <trkpt lat="42.837228" lon="0.172478">
        <ele>2375.1</ele>
        <time>2020-06-22T08:44:04Z</time>
      </trkpt>
      <trkpt lat="42.837145" lon="0.172526">
        <ele>2371.6</ele>
        <time>2020-06-22T08:44:33Z</time>
      </trkpt>
      <trkpt lat="42.837070" lon="0.172603">
        <ele>2369.9</ele>
        <time>2020-06-22T08:44:55Z</time>
      </trkpt>
      <trkpt lat="42.837025" lon="0.172673">
        <ele>2367.5</ele>
        <time>2020-06-22T08:46:59Z</time>
      </trkpt>
      <trkpt lat="42.836934" lon="0.172691">
        <ele>2363.9</ele>
        <time>2020-06-22T08:47:20Z</time>
      </trkpt>
      <trkpt lat="42.836838" lon="0.172757">
        <ele>2364.0</ele>
        <time>2020-06-22T08:47:35Z</time>
      </trkpt>
      <trkpt lat="42.836763" lon="0.172857">
        <ele>2363.9</ele>
        <time>2020-06-22T08:47:49Z</time>
      </trkpt>
      <trkpt lat="42.836717" lon="0.172966">
        <ele>2368.8</ele>
        <time>2020-06-22T08:48:21Z</time>
      </trkpt>
      <trkpt lat="42.836632" lon="0.172957">
        <ele>2374.5</ele>
        <time>2020-06-22T08:49:00Z</time>
      </trkpt>
      <trkpt lat="42.836547" lon="0.172985">
        <ele>2379.5</ele>
        <time>2020-06-22T08:49:41Z</time>
      </trkpt>
      <trkpt lat="42.836477" lon="0.173084">
        <ele>2381.7</ele>
        <time>2020-06-22T08:50:33Z</time>
      </trkpt>
      <trkpt lat="42.836433" lon="0.173186">
        <ele>2382.5</ele>
        <time>2020-06-22T08:50:56Z</time>
      </trkpt>
      <trkpt lat="42.836364" lon="0.173282">
        <ele>2384.0</ele>
        <time>2020-06-22T08:51:37Z</time>
      </trkpt>
      <trkpt lat="42.836302" lon="0.173352">
        <ele>2384.7</ele>
        <time>2020-06-22T08:52:33Z</time>
      </trkpt>
      <trkpt lat="42.836253" lon="0.173451">
        <ele>2384.8</ele>
        <time>2020-06-22T08:52:53Z</time>
      </trkpt>
      <trkpt lat="42.836189" lon="0.173546">
        <ele>2380.6</ele>
        <time>2020-06-22T08:53:25Z</time>
      </trkpt>
      <trkpt lat="42.836148" lon="0.173652">
        <ele>2378.1</ele>
        <time>2020-06-22T08:54:19Z</time>
      </trkpt>
      <trkpt lat="42.836116" lon="0.173783">
        <ele>2376.4</ele>
        <time>2020-06-22T08:55:04Z</time>
      </trkpt>
      <trkpt lat="42.836049" lon="0.173896">
        <ele>2375.6</ele>
        <time>2020-06-22T08:55:32Z</time>
      </trkpt>
      <trkpt lat="42.835970" lon="0.173949">
        <ele>2374.0</ele>
        <time>2020-06-22T08:56:12Z</time>
      </trkpt>
      <trkpt lat="42.835921" lon="0.174056">
        <ele>2373.8</ele>
        <time>2020-06-22T08:56:52Z</time>
      </trkpt>
      <trkpt lat="42.835832" lon="0.174101">
        <ele>2371.1</ele>
        <time>2020-06-22T08:58:05Z</time>
      </trkpt>
      <trkpt lat="42.835781" lon="0.174165">
        <ele>2371.2</ele>
        <time>2020-06-22T08:58:35Z</time>
      </trkpt>
      <trkpt lat="42.835756" lon="0.174250">
        <ele>2371.0</ele>
        <time>2020-06-22T09:01:17Z</time>
      </trkpt>
      <trkpt lat="42.835679" lon="0.174309">
        <ele>2373.7</ele>
        <time>2020-06-22T09:01:58Z</time>
      </trkpt>
      <trkpt lat="42.835600" lon="0.174365">
        <ele>2375.5</ele>
        <time>2020-06-22T09:02:19Z</time>
      </trkpt>
      <trkpt lat="42.835550" lon="0.174445">
        <ele>2375.3</ele>
        <time>2020-06-22T09:02:43Z</time>
      </trkpt>
      <trkpt lat="42.835498" lon="0.174530">
        <ele>2371.3</ele>
        <time>2020-06-22T09:03:14Z</time>
      </trkpt>
      <trkpt lat="42.835445" lon="0.174607">
        <ele>2368.7</ele>
        <time>2020-06-22T09:04:04Z</time>
      </trkpt>
      <trkpt lat="42.835354" lon="0.174623">
        <ele>2370.9</ele>
        <time>2020-06-22T09:04:39Z</time>
      </trkpt>
      <trkpt lat="42.835292" lon="0.174663">
        <ele>2370.8</ele>
        <time>2020-06-22T09:05:13Z</time>
      </trkpt>
      <trkpt lat="42.835240" lon="0.174739">
        <ele>2368.5</ele>
        <time>2020-06-22T09:05:32Z</time>
      </trkpt>
      <trkpt lat="42.835171" lon="0.174827">
        <ele>2366.7</ele>
        <time>2020-06-22T09:05:59Z</time>
      </trkpt>
      <trkpt lat="42.835097" lon="0.174862">
        <ele>2364.9</ele>
        <time>2020-06-22T09:06:40Z</time>
      </trkpt>
      <trkpt lat="42.835024" lon="0.174896">
        <ele>2368.0</ele>
        <time>2020-06-22T09:07:07Z</time>
      </trkpt>
      <trkpt lat="42.834961" lon="0.174999">
        <ele>2367.9</ele>
        <time>2020-06-22T09:07:32Z</time>
      </trkpt>
      <trkpt lat="42.834909" lon="0.175105">
        <ele>2367.8</ele>
        <time>2020-06-22T09:08:15Z</time>
      </trkpt>
      <trkpt lat="42.834874" lon="0.175215">
        <ele>2359.8</ele>
        <time>2020-06-22T09:09:29Z</time>
      </trkpt>
      <trkpt lat="42.834799" lon="0.175260">
        <ele>2359.0</ele>
        <time>2020-06-22T09:09:52Z</time>
      </trkpt>
      <trkpt lat="42.834757" lon="0.175348">
        <ele>2358.2</ele>
        <time>2020-06-22T09:10:46Z</time>
      </trkpt>
      <trkpt lat="42.834766" lon="0.175434">
        <ele>2356.5</ele>
        <time>2020-06-22T09:12:51Z</time>
      </trkpt>
      <trkpt lat="42.834735" lon="0.175535">
        <ele>2354.4</ele>
        <time>2020-06-22T09:14:04Z</time>
      </trkpt>
      <trkpt lat="42.834660" lon="0.175601">
        <ele>2352.6</ele>
        <time>2020-06-22T09:14:29Z</time>
      </trkpt>
      <trkpt lat="42.834608" lon="0.175670">
        <ele>2351.8</ele>
        <time>2020-06-22T09:15:14Z</time>
      </trkpt>
      <trkpt lat="42.834582" lon="0.175773">
        <ele>2350.0</ele>
        <time>2020-06-22T09:15:40Z</time>
      </trkpt>
      <trkpt lat="42.834514" lon="0.175847">
        <ele>2352.4</ele>
        <time>2020-06-22T09:16:02Z</time>
      </trkpt>
      <trkpt lat="42.834459" lon="0.175970">
        <ele>2351.0</ele>
        <time>2020-06-22T09:17:02Z</time>
      </trkpt>
      <trkpt lat="42.834405" lon="0.176030">
        <ele>2348.4</ele>
        <time>2020-06-22T09:18:32Z</time>
      </trkpt>
      <trkpt lat="42.834356" lon="0.176066">
        <ele>2344.0</ele>
        <time>2020-06-22T09:19:57Z</time>
      </trkpt>
      <trkpt lat="42.834320" lon="0.176121">
        <ele>2340.5</ele>
        <time>2020-06-22T09:20:21Z</time>
      </trkpt>
      <trkpt lat="42.834260" lon="0.176223">
        <ele>2340.7</ele>
        <time>2020-06-22T09:20:42Z</time>
      </trkpt>
      <trkpt lat="42.834209" lon="0.176348">
        <ele>2340.7</ele>
        <time>2020-06-22T09:21:02Z</time>
      </trkpt>
      <trkpt lat="42.834149" lon="0.176463">
        <ele>2340.6</ele>
        <time>2020-06-22T09:21:26Z</time>
      </trkpt>
      <trkpt lat="42.834126" lon="0.176567">
        <ele>2339.6</ele>
        <time>2020-06-22T09:21:53Z</time>
      </trkpt>
      <trkpt lat="42.834057" lon="0.176663">
        <ele>2338.0</ele>
        <time>2020-06-22T09:22:10Z</time>
      </trkpt>
      <trkpt lat="42.834022" lon="0.176786">
        <ele>2338.0</ele>
        <time>2020-06-22T09:22:29Z</time>
      </trkpt>
      <trkpt lat="42.833969" lon="0.176919">
        <ele>2337.9</ele>
        <time>2020-06-22T09:22:47Z</time>
      </trkpt>
      <trkpt lat="42.833918" lon="0.177053">
        <ele>2341.3</ele>
        <time>2020-06-22T09:23:09Z</time>
      </trkpt>
      <trkpt lat="42.833823" lon="0.177149">
        <ele>2343.6</ele>
        <time>2020-06-22T09:23:29Z</time>
      </trkpt>
      <trkpt lat="42.833834" lon="0.177233">
        <ele>2347.8</ele>
        <time>2020-06-22T09:24:08Z</time>
      </trkpt>
      <trkpt lat="42.833850" lon="0.177359">
        <ele>2350.2</ele>
        <time>2020-06-22T09:24:28Z</time>
      </trkpt>
      <trkpt lat="42.833862" lon="0.177495">
        <ele>2352.9</ele>
        <time>2020-06-22T09:24:50Z</time>
      </trkpt>
      <trkpt lat="42.833839" lon="0.177614">
        <ele>2356.2</ele>
        <time>2020-06-22T09:25:14Z</time>
      </trkpt>
      <trkpt lat="42.833800" lon="0.177712">
        <ele>2360.5</ele>
        <time>2020-06-22T09:25:39Z</time>
      </trkpt>
      <trkpt lat="42.833759" lon="0.177812">
        <ele>2363.7</ele>
        <time>2020-06-22T09:26:04Z</time>
      </trkpt>
      <trkpt lat="42.833742" lon="0.177933">
        <ele>2366.7</ele>
        <time>2020-06-22T09:26:29Z</time>
      </trkpt>
      <trkpt lat="42.833720" lon="0.178074">
        <ele>2370.0</ele>
        <time>2020-06-22T09:26:53Z</time>
      </trkpt>
      <trkpt lat="42.833696" lon="0.178201">
        <ele>2373.1</ele>
        <time>2020-06-22T09:27:23Z</time>
      </trkpt>
      <trkpt lat="42.833674" lon="0.178333">
        <ele>2375.8</ele>
        <time>2020-06-22T09:27:47Z</time>
      </trkpt>
      <trkpt lat="42.833658" lon="0.178458">
        <ele>2379.9</ele>
        <time>2020-06-22T09:28:11Z</time>
      </trkpt>
      <trkpt lat="42.833591" lon="0.178577">
        <ele>2382.8</ele>
        <time>2020-06-22T09:28:42Z</time>
      </trkpt>
      <trkpt lat="42.833530" lon="0.178704">
        <ele>2385.2</ele>
        <time>2020-06-22T09:29:03Z</time>
      </trkpt>
      <trkpt lat="42.833531" lon="0.178825">
        <ele>2388.4</ele>
        <time>2020-06-22T09:29:43Z</time>
      </trkpt>
      <trkpt lat="42.833516" lon="0.178947">
        <ele>2392.4</ele>
        <time>2020-06-22T09:30:08Z</time>
      </trkpt>
      <trkpt lat="42.833505" lon="0.179053">
        <ele>2397.2</ele>
        <time>2020-06-22T09:30:38Z</time>
      </trkpt>
      <trkpt lat="42.833513" lon="0.179120">
        <ele>2402.0</ele>
        <time>2020-06-22T09:31:15Z</time>
      </trkpt>
      <trkpt lat="42.833464" lon="0.179191">
        <ele>2407.1</ele>
        <time>2020-06-22T09:31:48Z</time>
      </trkpt>
      <trkpt lat="42.833398" lon="0.179258">
        <ele>2410.6</ele>
        <time>2020-06-22T09:32:20Z</time>
      </trkpt>
      <trkpt lat="42.833388" lon="0.179353">
        <ele>2415.3</ele>
        <time>2020-06-22T09:32:59Z</time>
      </trkpt>
      <trkpt lat="42.833360" lon="0.179428">
        <ele>2419.3</ele>
        <time>2020-06-22T09:33:32Z</time>
      </trkpt>
      <trkpt lat="42.833352" lon="0.179532">
        <ele>2426.1</ele>
        <time>2020-06-22T09:34:20Z</time>
      </trkpt>
      <trkpt lat="42.833364" lon="0.179658">
        <ele>2431.0</ele>
        <time>2020-06-22T09:34:53Z</time>
      </trkpt>
      <trkpt lat="42.833385" lon="0.179765">
        <ele>2434.4</ele>
        <time>2020-06-22T09:35:21Z</time>
      </trkpt>
      <trkpt lat="42.833397" lon="0.179882">
        <ele>2438.0</ele>
        <time>2020-06-22T09:35:47Z</time>
      </trkpt>
      <trkpt lat="42.833378" lon="0.179993">
        <ele>2439.6</ele>
        <time>2020-06-22T09:36:09Z</time>
      </trkpt>
      <trkpt lat="42.833340" lon="0.180095">
        <ele>2444.1</ele>
        <time>2020-06-22T09:36:47Z</time>
      </trkpt>
      <trkpt lat="42.833283" lon="0.180191">
        <ele>2447.4</ele>
        <time>2020-06-22T09:37:11Z</time>
      </trkpt>
      <trkpt lat="42.833249" lon="0.180289">
        <ele>2450.0</ele>
        <time>2020-06-22T09:37:41Z</time>
      </trkpt>
      <trkpt lat="42.833259" lon="0.180417">
        <ele>2452.3</ele>
        <time>2020-06-22T09:38:03Z</time>
      </trkpt>
      <trkpt lat="42.833216" lon="0.180531">
        <ele>2456.6</ele>
        <time>2020-06-22T09:38:24Z</time>
      </trkpt>
      <trkpt lat="42.833168" lon="0.180636">
        <ele>2459.3</ele>
        <time>2020-06-22T09:38:42Z</time>
      </trkpt>
      <trkpt lat="42.833097" lon="0.180726">
        <ele>2460.1</ele>
        <time>2020-06-22T09:38:58Z</time>
      </trkpt>
      <trkpt lat="42.833054" lon="0.180840">
        <ele>2461.8</ele>
        <time>2020-06-22T09:39:14Z</time>
      </trkpt>
      <trkpt lat="42.832989" lon="0.180799">
        <ele>2465.0</ele>
        <time>2020-06-22T10:08:26Z</time>
      </trkpt>
      <trkpt lat="42.832993" lon="0.180714">
        <ele>2460.0</ele>
        <time>2020-06-22T10:08:59Z</time>
      </trkpt>
      <trkpt lat="42.832908" lon="0.180763">
        <ele>2458.3</ele>
        <time>2020-06-22T10:09:16Z</time>
      </trkpt>
      <trkpt lat="42.832782" lon="0.180865">
        <ele>2455.8</ele>
        <time>2020-06-22T10:09:31Z</time>
      </trkpt>
      <trkpt lat="42.832710" lon="0.180955">
        <ele>2452.7</ele>
        <time>2020-06-22T10:09:53Z</time>
      </trkpt>
      <trkpt lat="42.832624" lon="0.180969">
        <ele>2452.7</ele>
        <time>2020-06-22T10:10:10Z</time>
      </trkpt>
      <trkpt lat="42.832522" lon="0.180999">
        <ele>2451.8</ele>
        <time>2020-06-22T10:10:26Z</time>
      </trkpt>
      <trkpt lat="42.832430" lon="0.181036">
        <ele>2447.6</ele>
        <time>2020-06-22T10:10:41Z</time>
      </trkpt>
      <trkpt lat="42.832387" lon="0.181115">
        <ele>2444.3</ele>
        <time>2020-06-22T10:10:56Z</time>
      </trkpt>
      <trkpt lat="42.832306" lon="0.181150">
        <ele>2440.7</ele>
        <time>2020-06-22T10:11:13Z</time>
      </trkpt>
      <trkpt lat="42.832214" lon="0.181152">
        <ele>2437.8</ele>
        <time>2020-06-22T10:11:25Z</time>
      </trkpt>
      <trkpt lat="42.832120" lon="0.181143">
        <ele>2435.0</ele>
        <time>2020-06-22T10:11:38Z</time>
      </trkpt>
      <trkpt lat="42.832065" lon="0.181222">
        <ele>2431.5</ele>
        <time>2020-06-22T10:11:51Z</time>
      </trkpt>
      <trkpt lat="42.832031" lon="0.181285">
        <ele>2427.3</ele>
        <time>2020-06-22T10:12:09Z</time>
      </trkpt>
      <trkpt lat="42.831955" lon="0.181310">
        <ele>2424.5</ele>
        <time>2020-06-22T10:12:25Z</time>
      </trkpt>
      <trkpt lat="42.831868" lon="0.181344">
        <ele>2418.9</ele>
        <time>2020-06-22T10:12:43Z</time>
      </trkpt>
      <trkpt lat="42.831790" lon="0.181387">
        <ele>2415.2</ele>
        <time>2020-06-22T10:13:01Z</time>
      </trkpt>
      <trkpt lat="42.831696" lon="0.181421">
        <ele>2410.7</ele>
        <time>2020-06-22T10:13:17Z</time>
      </trkpt>
      <trkpt lat="42.831599" lon="0.181463">
        <ele>2407.5</ele>
        <time>2020-06-22T10:13:34Z</time>
      </trkpt>
      <trkpt lat="42.831553" lon="0.181487">
        <ele>2403.7</ele>
        <time>2020-06-22T10:13:55Z</time>
      </trkpt>
      <trkpt lat="42.831489" lon="0.181510">
        <ele>2398.3</ele>
        <time>2020-06-22T10:14:17Z</time>
      </trkpt>
      <trkpt lat="42.831392" lon="0.181498">
        <ele>2394.6</ele>
        <time>2020-06-22T10:14:36Z</time>
      </trkpt>
      <trkpt lat="42.831287" lon="0.181479">
        <ele>2392.2</ele>
        <time>2020-06-22T10:14:53Z</time>
      </trkpt>
      <trkpt lat="42.831194" lon="0.181431">
        <ele>2388.8</ele>
        <time>2020-06-22T10:15:09Z</time>
      </trkpt>
      <trkpt lat="42.831104" lon="0.181437">
        <ele>2383.0</ele>
        <time>2020-06-22T10:15:27Z</time>
      </trkpt>
      <trkpt lat="42.831015" lon="0.181481">
        <ele>2379.8</ele>
        <time>2020-06-22T10:15:43Z</time>
      </trkpt>
      <trkpt lat="42.830943" lon="0.181489">
        <ele>2375.6</ele>
        <time>2020-06-22T10:15:59Z</time>
      </trkpt>
      <trkpt lat="42.830873" lon="0.181525">
        <ele>2373.0</ele>
        <time>2020-06-22T10:16:13Z</time>
      </trkpt>
      <trkpt lat="42.830778" lon="0.181531">
        <ele>2369.5</ele>
        <time>2020-06-22T10:16:31Z</time>
      </trkpt>
      <trkpt lat="42.830699" lon="0.181540">
        <ele>2364.7</ele>
        <time>2020-06-22T10:16:48Z</time>
      </trkpt>
      <trkpt lat="42.830651" lon="0.181633">
        <ele>2361.4</ele>
        <time>2020-06-22T10:17:06Z</time>
      </trkpt>
      <trkpt lat="42.830660" lon="0.181671">
        <ele>2356.1</ele>
        <time>2020-06-22T10:17:27Z</time>
      </trkpt>
      <trkpt lat="42.830572" lon="0.181703">
        <ele>2352.6</ele>
        <time>2020-06-22T10:17:44Z</time>
      </trkpt>
      <trkpt lat="42.830461" lon="0.181748">
        <ele>2347.5</ele>
        <time>2020-06-22T10:18:01Z</time>
      </trkpt>
      <trkpt lat="42.830383" lon="0.181809">
        <ele>2344.8</ele>
        <time>2020-06-22T10:18:15Z</time>
      </trkpt>
      <trkpt lat="42.830292" lon="0.181854">
        <ele>2341.0</ele>
        <time>2020-06-22T10:18:31Z</time>
      </trkpt>
      <trkpt lat="42.830193" lon="0.181880">
        <ele>2337.2</ele>
        <time>2020-06-22T10:18:48Z</time>
      </trkpt>
      <trkpt lat="42.830184" lon="0.181898">
        <ele>2332.8</ele>
        <time>2020-06-22T10:19:06Z</time>
      </trkpt>
      <trkpt lat="42.830158" lon="0.181957">
        <ele>2328.2</ele>
        <time>2020-06-22T10:19:27Z</time>
      </trkpt>
      <trkpt lat="42.830113" lon="0.182016">
        <ele>2323.6</ele>
        <time>2020-06-22T10:19:45Z</time>
      </trkpt>
      <trkpt lat="42.830029" lon="0.182032">
        <ele>2321.1</ele>
        <time>2020-06-22T10:20:01Z</time>
      </trkpt>
      <trkpt lat="42.829921" lon="0.182017">
        <ele>2319.8</ele>
        <time>2020-06-22T10:20:19Z</time>
      </trkpt>
      <trkpt lat="42.829820" lon="0.182027">
        <ele>2317.2</ele>
        <time>2020-06-22T10:20:32Z</time>
      </trkpt>
      <trkpt lat="42.829728" lon="0.182043">
        <ele>2316.4</ele>
        <time>2020-06-22T10:20:45Z</time>
      </trkpt>
      <trkpt lat="42.829650" lon="0.182098">
        <ele>2313.9</ele>
        <time>2020-06-22T10:21:12Z</time>
      </trkpt>
      <trkpt lat="42.829547" lon="0.182117">
        <ele>2312.3</ele>
        <time>2020-06-22T10:21:30Z</time>
      </trkpt>
      <trkpt lat="42.829487" lon="0.182158">
        <ele>2308.3</ele>
        <time>2020-06-22T10:21:47Z</time>
      </trkpt>
      <trkpt lat="42.829398" lon="0.182203">
        <ele>2305.5</ele>
        <time>2020-06-22T10:22:01Z</time>
      </trkpt>
      <trkpt lat="42.829312" lon="0.182249">
        <ele>2302.9</ele>
        <time>2020-06-22T10:22:12Z</time>
      </trkpt>
      <trkpt lat="42.829227" lon="0.182311">
        <ele>2301.1</ele>
        <time>2020-06-22T10:22:24Z</time>
      </trkpt>
      <trkpt lat="42.829157" lon="0.182378">
        <ele>2297.6</ele>
        <time>2020-06-22T10:22:36Z</time>
      </trkpt>
      <trkpt lat="42.829072" lon="0.182472">
        <ele>2295.5</ele>
        <time>2020-06-22T10:23:00Z</time>
      </trkpt>
      <trkpt lat="42.829007" lon="0.182548">
        <ele>2291.6</ele>
        <time>2020-06-22T10:23:12Z</time>
      </trkpt>
      <trkpt lat="42.828915" lon="0.182581">
        <ele>2290.9</ele>
        <time>2020-06-22T10:23:29Z</time>
      </trkpt>
      <trkpt lat="42.828833" lon="0.182635">
        <ele>2288.3</ele>
        <time>2020-06-22T10:23:44Z</time>
      </trkpt>
      <trkpt lat="42.828757" lon="0.182702">
        <ele>2285.4</ele>
        <time>2020-06-22T10:23:57Z</time>
      </trkpt>
      <trkpt lat="42.828610" lon="0.182800">
        <ele>2283.8</ele>
        <time>2020-06-22T10:24:12Z</time>
      </trkpt>
      <trkpt lat="42.828418" lon="0.183045">
        <ele>2274.2</ele>
        <time>2020-06-22T10:25:46Z</time>
      </trkpt>
      <trkpt lat="42.828273" lon="0.183122">
        <ele>2269.8</ele>
        <time>2020-06-22T11:18:59Z</time>
      </trkpt>
      <trkpt lat="42.828089" lon="0.183256">
        <ele>2264.5</ele>
        <time>2020-06-22T11:19:46Z</time>
      </trkpt>
      <trkpt lat="42.827918" lon="0.183333">
        <ele>2261.5</ele>
        <time>2020-06-22T11:22:04Z</time>
      </trkpt>
      <trkpt lat="42.827820" lon="0.183294">
        <ele>2261.3</ele>
        <time>2020-06-22T11:22:20Z</time>
      </trkpt>
      <trkpt lat="42.827651" lon="0.183290">
        <ele>2259.9</ele>
        <time>2020-06-22T11:22:32Z</time>
      </trkpt>
      <trkpt lat="42.827483" lon="0.183308">
        <ele>2258.1</ele>
        <time>2020-06-22T11:22:44Z</time>
      </trkpt>
      <trkpt lat="42.827358" lon="0.183446">
        <ele>2254.4</ele>
        <time>2020-06-22T11:22:54Z</time>
      </trkpt>
      <trkpt lat="42.827234" lon="0.183508">
        <ele>2252.0</ele>
        <time>2020-06-22T11:23:05Z</time>
      </trkpt>
      <trkpt lat="42.827175" lon="0.183490">
        <ele>2251.9</ele>
        <time>2020-06-22T11:23:18Z</time>
      </trkpt>
      <trkpt lat="42.827046" lon="0.183446">
        <ele>2251.8</ele>
        <time>2020-06-22T11:23:31Z</time>
      </trkpt>
      <trkpt lat="42.826917" lon="0.183424">
        <ele>2251.0</ele>
        <time>2020-06-22T11:23:46Z</time>
      </trkpt>
      <trkpt lat="42.826814" lon="0.183318">
        <ele>2251.3</ele>
        <time>2020-06-22T11:23:59Z</time>
      </trkpt>
      <trkpt lat="42.826824" lon="0.183187">
        <ele>2250.3</ele>
        <time>2020-06-22T11:24:15Z</time>
      </trkpt>
      <trkpt lat="42.826903" lon="0.182843">
        <ele>2249.2</ele>
        <time>2020-06-22T11:24:28Z</time>
      </trkpt>
      <trkpt lat="42.826986" lon="0.182620">
        <ele>2250.1</ele>
        <time>2020-06-22T11:24:41Z</time>
      </trkpt>
      <trkpt lat="42.827087" lon="0.182368">
        <ele>2250.6</ele>
        <time>2020-06-22T11:24:53Z</time>
      </trkpt>
      <trkpt lat="42.827191" lon="0.182163">
        <ele>2250.6</ele>
        <time>2020-06-22T11:25:05Z</time>
      </trkpt>
      <trkpt lat="42.827282" lon="0.182030">
        <ele>2231.0</ele>
        <time>2020-06-22T11:25:17Z</time>
      </trkpt>
      <trkpt lat="42.827311" lon="0.181915">
        <ele>2227.4</ele>
        <time>2020-06-22T11:25:31Z</time>
      </trkpt>
      <trkpt lat="42.827414" lon="0.181818">
        <ele>2224.7</ele>
        <time>2020-06-22T11:25:46Z</time>
      </trkpt>
      <trkpt lat="42.827455" lon="0.181731">
        <ele>2222.0</ele>
        <time>2020-06-22T11:26:23Z</time>
      </trkpt>
      <trkpt lat="42.827489" lon="0.181598">
        <ele>2220.4</ele>
        <time>2020-06-22T11:26:34Z</time>
      </trkpt>
      <trkpt lat="42.827548" lon="0.181479">
        <ele>2219.6</ele>
        <time>2020-06-22T11:26:43Z</time>
      </trkpt>
      <trkpt lat="42.827583" lon="0.181340">
        <ele>2218.7</ele>
        <time>2020-06-22T11:26:52Z</time>
      </trkpt>
      <trkpt lat="42.827615" lon="0.181210">
        <ele>2216.8</ele>
        <time>2020-06-22T11:27:05Z</time>
      </trkpt>
      <trkpt lat="42.827648" lon="0.181074">
        <ele>2213.4</ele>
        <time>2020-06-22T11:27:18Z</time>
      </trkpt>
      <trkpt lat="42.827739" lon="0.180938">
        <ele>2211.6</ele>
        <time>2020-06-22T11:27:31Z</time>
      </trkpt>
      <trkpt lat="42.827819" lon="0.180804">
        <ele>2209.9</ele>
        <time>2020-06-22T11:27:44Z</time>
      </trkpt>
      <trkpt lat="42.827907" lon="0.180679">
        <ele>2207.3</ele>
        <time>2020-06-22T11:27:59Z</time>
      </trkpt>
      <trkpt lat="42.828028" lon="0.180558">
        <ele>2204.4</ele>
        <time>2020-06-22T11:28:13Z</time>
      </trkpt>
      <trkpt lat="42.828165" lon="0.180466">
        <ele>2199.6</ele>
        <time>2020-06-22T11:28:30Z</time>
      </trkpt>
      <trkpt lat="42.828249" lon="0.180311">
        <ele>2196.1</ele>
        <time>2020-06-22T11:28:59Z</time>
      </trkpt>
      <trkpt lat="42.828241" lon="0.180240">
        <ele>2194.3</ele>
        <time>2020-06-22T11:29:25Z</time>
      </trkpt>
      <trkpt lat="42.828213" lon="0.180086">
        <ele>2192.5</ele>
        <time>2020-06-22T11:29:45Z</time>
      </trkpt>
      <trkpt lat="42.828264" lon="0.179887">
        <ele>2192.5</ele>
        <time>2020-06-22T11:30:01Z</time>
      </trkpt>
      <trkpt lat="42.828357" lon="0.179694">
        <ele>2190.7</ele>
        <time>2020-06-22T11:30:18Z</time>
      </trkpt>
      <trkpt lat="42.828471" lon="0.179600">
        <ele>2190.7</ele>
        <time>2020-06-22T11:30:31Z</time>
      </trkpt>
      <trkpt lat="42.828593" lon="0.179476">
        <ele>2190.6</ele>
        <time>2020-06-22T11:30:46Z</time>
      </trkpt>
      <trkpt lat="42.828688" lon="0.179320">
        <ele>2188.8</ele>
        <time>2020-06-22T11:31:01Z</time>
      </trkpt>
      <trkpt lat="42.828776" lon="0.179188">
        <ele>2187.1</ele>
        <time>2020-06-22T11:31:21Z</time>
      </trkpt>
      <trkpt lat="42.828865" lon="0.179025">
        <ele>2184.3</ele>
        <time>2020-06-22T11:31:40Z</time>
      </trkpt>
      <trkpt lat="42.828952" lon="0.178888">
        <ele>2180.9</ele>
        <time>2020-06-22T11:31:57Z</time>
      </trkpt>
      <trkpt lat="42.829085" lon="0.178746">
        <ele>2180.1</ele>
        <time>2020-06-22T11:32:12Z</time>
      </trkpt>
      <trkpt lat="42.829168" lon="0.178631">
        <ele>2179.2</ele>
        <time>2020-06-22T11:32:28Z</time>
      </trkpt>
      <trkpt lat="42.829264" lon="0.178519">
        <ele>2177.3</ele>
        <time>2020-06-22T11:32:46Z</time>
      </trkpt>
      <trkpt lat="42.829360" lon="0.178314">
        <ele>2176.4</ele>
        <time>2020-06-22T11:33:04Z</time>
      </trkpt>
      <trkpt lat="42.829414" lon="0.178135">
        <ele>2176.2</ele>
        <time>2020-06-22T11:33:23Z</time>
      </trkpt>
      <trkpt lat="42.829460" lon="0.177966">
        <ele>2173.6</ele>
        <time>2020-06-22T11:33:42Z</time>
      </trkpt>
      <trkpt lat="42.829567" lon="0.177798">
        <ele>2173.5</ele>
        <time>2020-06-22T11:34:02Z</time>
      </trkpt>
      <trkpt lat="42.829621" lon="0.177628">
        <ele>2172.5</ele>
        <time>2020-06-22T11:34:20Z</time>
      </trkpt>
      <trkpt lat="42.829727" lon="0.177546">
        <ele>2171.6</ele>
        <time>2020-06-22T11:34:38Z</time>
      </trkpt>
      <trkpt lat="42.829846" lon="0.177426">
        <ele>2173.6</ele>
        <time>2020-06-22T11:34:59Z</time>
      </trkpt>
      <trkpt lat="42.829935" lon="0.177265">
        <ele>2171.0</ele>
        <time>2020-06-22T11:35:15Z</time>
      </trkpt>
      <trkpt lat="42.830016" lon="0.177172">
        <ele>2169.2</ele>
        <time>2020-06-22T11:36:36Z</time>
      </trkpt>
      <trkpt lat="42.830099" lon="0.177113">
        <ele>2169.2</ele>
        <time>2020-06-22T11:36:57Z</time>
      </trkpt>
      <trkpt lat="42.830213" lon="0.177084">
        <ele>2166.6</ele>
        <time>2020-06-22T11:37:16Z</time>
      </trkpt>
      <trkpt lat="42.830325" lon="0.177031">
        <ele>2164.9</ele>
        <time>2020-06-22T11:37:31Z</time>
      </trkpt>
      <trkpt lat="42.830425" lon="0.176981">
        <ele>2161.6</ele>
        <time>2020-06-22T11:37:52Z</time>
      </trkpt>
      <trkpt lat="42.830519" lon="0.176887">
        <ele>2160.6</ele>
        <time>2020-06-22T11:38:12Z</time>
      </trkpt>
      <trkpt lat="42.830594" lon="0.176815">
        <ele>2160.6</ele>
        <time>2020-06-22T11:38:26Z</time>
      </trkpt>
      <trkpt lat="42.830704" lon="0.176599">
        <ele>2160.6</ele>
        <time>2020-06-22T11:38:44Z</time>
      </trkpt>
      <trkpt lat="42.830788" lon="0.176420">
        <ele>2159.6</ele>
        <time>2020-06-22T11:39:00Z</time>
      </trkpt>
      <trkpt lat="42.830879" lon="0.176334">
        <ele>2158.8</ele>
        <time>2020-06-22T11:39:16Z</time>
      </trkpt>
      <trkpt lat="42.830995" lon="0.176197">
        <ele>2161.0</ele>
        <time>2020-06-22T11:39:36Z</time>
      </trkpt>
      <trkpt lat="42.831097" lon="0.176108">
        <ele>2158.6</ele>
        <time>2020-06-22T11:39:54Z</time>
      </trkpt>
      <trkpt lat="42.831153" lon="0.175983">
        <ele>2156.0</ele>
        <time>2020-06-22T11:40:13Z</time>
      </trkpt>
      <trkpt lat="42.831234" lon="0.175868">
        <ele>2154.4</ele>
        <time>2020-06-22T11:40:36Z</time>
      </trkpt>
      <trkpt lat="42.831218" lon="0.175768">
        <ele>2153.3</ele>
        <time>2020-06-22T11:41:29Z</time>
      </trkpt>
      <trkpt lat="42.831334" lon="0.175634">
        <ele>2150.7</ele>
        <time>2020-06-22T11:41:48Z</time>
      </trkpt>
      <trkpt lat="42.831436" lon="0.175453">
        <ele>2148.9</ele>
        <time>2020-06-22T11:42:06Z</time>
      </trkpt>
      <trkpt lat="42.831518" lon="0.175315">
        <ele>2146.4</ele>
        <time>2020-06-22T11:42:26Z</time>
      </trkpt>
      <trkpt lat="42.831536" lon="0.175169">
        <ele>2142.9</ele>
        <time>2020-06-22T11:42:45Z</time>
      </trkpt>
      <trkpt lat="42.831569" lon="0.175023">
        <ele>2139.4</ele>
        <time>2020-06-22T11:43:01Z</time>
      </trkpt>
      <trkpt lat="42.831615" lon="0.174877">
        <ele>2136.8</ele>
        <time>2020-06-22T11:43:21Z</time>
      </trkpt>
      <trkpt lat="42.831630" lon="0.174718">
        <ele>2135.1</ele>
        <time>2020-06-22T11:43:41Z</time>
      </trkpt>
      <trkpt lat="42.831713" lon="0.174565">
        <ele>2134.1</ele>
        <time>2020-06-22T11:43:58Z</time>
      </trkpt>
      <trkpt lat="42.831782" lon="0.174389">
        <ele>2131.4</ele>
        <time>2020-06-22T11:44:17Z</time>
      </trkpt>
      <trkpt lat="42.831889" lon="0.174266">
        <ele>2128.7</ele>
        <time>2020-06-22T11:44:34Z</time>
      </trkpt>
      <trkpt lat="42.832015" lon="0.174127">
        <ele>2127.0</ele>
        <time>2020-06-22T11:44:50Z</time>
      </trkpt>
      <trkpt lat="42.832096" lon="0.174032">
        <ele>2126.9</ele>
        <time>2020-06-22T11:45:08Z</time>
      </trkpt>
      <trkpt lat="42.832126" lon="0.173911">
        <ele>2122.5</ele>
        <time>2020-06-22T11:45:28Z</time>
      </trkpt>
      <trkpt lat="42.832291" lon="0.173746">
        <ele>2120.9</ele>
        <time>2020-06-22T11:45:47Z</time>
      </trkpt>
      <trkpt lat="42.832345" lon="0.173560">
        <ele>2120.9</ele>
        <time>2020-06-22T11:46:04Z</time>
      </trkpt>
      <trkpt lat="42.832274" lon="0.173442">
        <ele>2120.8</ele>
        <time>2020-06-22T11:46:20Z</time>
      </trkpt>
      <trkpt lat="42.832259" lon="0.173293">
        <ele>2120.7</ele>
        <time>2020-06-22T11:46:39Z</time>
      </trkpt>
      <trkpt lat="42.832281" lon="0.173181">
        <ele>2125.6</ele>
        <time>2020-06-22T11:46:58Z</time>
      </trkpt>
      <trkpt lat="42.832362" lon="0.173089">
        <ele>2129.1</ele>
        <time>2020-06-22T11:47:20Z</time>
      </trkpt>
      <trkpt lat="42.832447" lon="0.172944">
        <ele>2132.5</ele>
        <time>2020-06-22T11:47:38Z</time>
      </trkpt>
      <trkpt lat="42.832509" lon="0.172767">
        <ele>2132.3</ele>
        <time>2020-06-22T11:47:55Z</time>
      </trkpt>
      <trkpt lat="42.832540" lon="0.172593">
        <ele>2135.5</ele>
        <time>2020-06-22T11:48:12Z</time>
      </trkpt>
      <trkpt lat="42.832531" lon="0.172438">
        <ele>2135.3</ele>
        <time>2020-06-22T11:48:28Z</time>
      </trkpt>
      <trkpt lat="42.832549" lon="0.172263">
        <ele>2135.2</ele>
        <time>2020-06-22T11:48:47Z</time>
      </trkpt>
      <trkpt lat="42.832596" lon="0.172122">
        <ele>2136.7</ele>
        <time>2020-06-22T11:49:03Z</time>
      </trkpt>
      <trkpt lat="42.832643" lon="0.171976">
        <ele>2138.3</ele>
        <time>2020-06-22T11:49:17Z</time>
      </trkpt>
      <trkpt lat="42.832687" lon="0.171819">
        <ele>2140.0</ele>
        <time>2020-06-22T11:49:29Z</time>
      </trkpt>
      <trkpt lat="42.832682" lon="0.171674">
        <ele>2141.7</ele>
        <time>2020-06-22T11:49:41Z</time>
      </trkpt>
      <trkpt lat="42.832704" lon="0.171536">
        <ele>2143.4</ele>
        <time>2020-06-22T11:49:52Z</time>
      </trkpt>
      <trkpt lat="42.832731" lon="0.171402">
        <ele>2145.4</ele>
        <time>2020-06-22T11:50:04Z</time>
      </trkpt>
      <trkpt lat="42.832769" lon="0.171254">
        <ele>2148.0</ele>
        <time>2020-06-22T11:50:18Z</time>
      </trkpt>
      <trkpt lat="42.832816" lon="0.171127">
        <ele>2151.4</ele>
        <time>2020-06-22T11:50:32Z</time>
      </trkpt>
      <trkpt lat="42.832874" lon="0.170988">
        <ele>2153.0</ele>
        <time>2020-06-22T11:50:46Z</time>
      </trkpt>
      <trkpt lat="42.832885" lon="0.170826">
        <ele>2156.7</ele>
        <time>2020-06-22T11:51:03Z</time>
      </trkpt>
      <trkpt lat="42.832872" lon="0.170698">
        <ele>2159.0</ele>
        <time>2020-06-22T11:51:21Z</time>
      </trkpt>
      <trkpt lat="42.832871" lon="0.170536">
        <ele>2161.4</ele>
        <time>2020-06-22T11:51:40Z</time>
      </trkpt>
      <trkpt lat="42.832890" lon="0.170382">
        <ele>2164.2</ele>
        <time>2020-06-22T11:51:58Z</time>
      </trkpt>
      <trkpt lat="42.832904" lon="0.170225">
        <ele>2166.7</ele>
        <time>2020-06-22T11:52:16Z</time>
      </trkpt>
      <trkpt lat="42.832963" lon="0.170033">
        <ele>2169.1</ele>
        <time>2020-06-22T11:52:33Z</time>
      </trkpt>
      <trkpt lat="42.833049" lon="0.169866">
        <ele>2171.5</ele>
        <time>2020-06-22T11:52:48Z</time>
      </trkpt>
      <trkpt lat="42.833082" lon="0.169713">
        <ele>2173.2</ele>
        <time>2020-06-22T11:53:01Z</time>
      </trkpt>
      <trkpt lat="42.833135" lon="0.169591">
        <ele>2174.9</ele>
        <time>2020-06-22T11:53:13Z</time>
      </trkpt>
      <trkpt lat="42.833197" lon="0.169452">
        <ele>2175.7</ele>
        <time>2020-06-22T11:53:25Z</time>
      </trkpt>
      <trkpt lat="42.833236" lon="0.169311">
        <ele>2176.6</ele>
        <time>2020-06-22T11:53:36Z</time>
      </trkpt>
      <trkpt lat="42.833301" lon="0.169202">
        <ele>2178.4</ele>
        <time>2020-06-22T11:53:47Z</time>
      </trkpt>
      <trkpt lat="42.833305" lon="0.169066">
        <ele>2180.0</ele>
        <time>2020-06-22T11:53:59Z</time>
      </trkpt>
      <trkpt lat="42.833343" lon="0.168932">
        <ele>2181.7</ele>
        <time>2020-06-22T11:54:13Z</time>
      </trkpt>
      <trkpt lat="42.833380" lon="0.168786">
        <ele>2183.3</ele>
        <time>2020-06-22T11:54:28Z</time>
      </trkpt>
      <trkpt lat="42.833389" lon="0.168630">
        <ele>2184.1</ele>
        <time>2020-06-22T11:54:39Z</time>
      </trkpt>
      <trkpt lat="42.833416" lon="0.168487">
        <ele>2185.0</ele>
        <time>2020-06-22T11:54:50Z</time>
      </trkpt>
      <trkpt lat="42.833429" lon="0.168343">
        <ele>2185.7</ele>
        <time>2020-06-22T11:54:59Z</time>
      </trkpt>
      <trkpt lat="42.833442" lon="0.168196">
        <ele>2186.5</ele>
        <time>2020-06-22T11:55:10Z</time>
      </trkpt>
      <trkpt lat="42.833451" lon="0.168052">
        <ele>2186.4</ele>
        <time>2020-06-22T11:55:28Z</time>
      </trkpt>
      <trkpt lat="42.833500" lon="0.167925">
        <ele>2186.4</ele>
        <time>2020-06-22T11:55:40Z</time>
      </trkpt>
      <trkpt lat="42.833536" lon="0.167788">
        <ele>2184.1</ele>
        <time>2020-06-22T11:55:50Z</time>
      </trkpt>
      <trkpt lat="42.833578" lon="0.167666">
        <ele>2183.3</ele>
        <time>2020-06-22T11:55:58Z</time>
      </trkpt>
      <trkpt lat="42.833614" lon="0.167532">
        <ele>2183.3</ele>
        <time>2020-06-22T11:56:07Z</time>
      </trkpt>
      <trkpt lat="42.833664" lon="0.167401">
        <ele>2183.4</ele>
        <time>2020-06-22T11:56:15Z</time>
      </trkpt>
      <trkpt lat="42.833705" lon="0.167261">
        <ele>2183.4</ele>
        <time>2020-06-22T11:56:25Z</time>
      </trkpt>
      <trkpt lat="42.833735" lon="0.167135">
        <ele>2183.4</ele>
        <time>2020-06-22T11:56:34Z</time>
      </trkpt>
      <trkpt lat="42.833791" lon="0.167013">
        <ele>2183.4</ele>
        <time>2020-06-22T11:56:42Z</time>
      </trkpt>
      <trkpt lat="42.833842" lon="0.166894">
        <ele>2183.4</ele>
        <time>2020-06-22T11:56:51Z</time>
      </trkpt>
      <trkpt lat="42.833907" lon="0.166781">
        <ele>2183.4</ele>
        <time>2020-06-22T11:57:01Z</time>
      </trkpt>
      <trkpt lat="42.833979" lon="0.166678">
        <ele>2185.7</ele>
        <time>2020-06-22T11:57:10Z</time>
      </trkpt>
      <trkpt lat="42.834046" lon="0.166573">
        <ele>2185.7</ele>
        <time>2020-06-22T11:57:18Z</time>
      </trkpt>
      <trkpt lat="42.834105" lon="0.166467">
        <ele>2185.8</ele>
        <time>2020-06-22T11:57:27Z</time>
      </trkpt>
      <trkpt lat="42.834172" lon="0.166372">
        <ele>2186.5</ele>
        <time>2020-06-22T11:57:36Z</time>
      </trkpt>
      <trkpt lat="42.834203" lon="0.166242">
        <ele>2186.6</ele>
        <time>2020-06-22T11:57:46Z</time>
      </trkpt>
      <trkpt lat="42.834271" lon="0.166133">
        <ele>2187.4</ele>
        <time>2020-06-22T11:57:57Z</time>
      </trkpt>
      <trkpt lat="42.834337" lon="0.166016">
        <ele>2188.3</ele>
        <time>2020-06-22T11:58:07Z</time>
      </trkpt>
      <trkpt lat="42.834383" lon="0.165886">
        <ele>2189.2</ele>
        <time>2020-06-22T11:58:20Z</time>
      </trkpt>
      <trkpt lat="42.834432" lon="0.165758">
        <ele>2189.1</ele>
        <time>2020-06-22T11:58:31Z</time>
      </trkpt>
      <trkpt lat="42.834508" lon="0.165648">
        <ele>2189.9</ele>
        <time>2020-06-22T11:58:41Z</time>
      </trkpt>
      <trkpt lat="42.834594" lon="0.165556">
        <ele>2190.8</ele>
        <time>2020-06-22T11:58:51Z</time>
      </trkpt>
      <trkpt lat="42.834620" lon="0.165413">
        <ele>2192.6</ele>
        <time>2020-06-22T11:59:04Z</time>
      </trkpt>
      <trkpt lat="42.834644" lon="0.165267">
        <ele>2194.4</ele>
        <time>2020-06-22T11:59:17Z</time>
      </trkpt>
      <trkpt lat="42.834683" lon="0.165133">
        <ele>2196.0</ele>
        <time>2020-06-22T11:59:28Z</time>
      </trkpt>
      <trkpt lat="42.834709" lon="0.164991">
        <ele>2197.6</ele>
        <time>2020-06-22T11:59:40Z</time>
      </trkpt>
      <trkpt lat="42.834748" lon="0.164858">
        <ele>2199.3</ele>
        <time>2020-06-22T11:59:52Z</time>
      </trkpt>
      <trkpt lat="42.834792" lon="0.164732">
        <ele>2200.1</ele>
        <time>2020-06-22T12:00:03Z</time>
      </trkpt>
      <trkpt lat="42.834856" lon="0.164625">
        <ele>2202.0</ele>
        <time>2020-06-22T12:00:14Z</time>
      </trkpt>
      <trkpt lat="42.834887" lon="0.164502">
        <ele>2203.8</ele>
        <time>2020-06-22T12:00:25Z</time>
      </trkpt>
      <trkpt lat="42.834885" lon="0.164366">
        <ele>2205.4</ele>
        <time>2020-06-22T12:00:38Z</time>
      </trkpt>
      <trkpt lat="42.834890" lon="0.164239">
        <ele>2207.0</ele>
        <time>2020-06-22T12:00:49Z</time>
      </trkpt>
      <trkpt lat="42.834876" lon="0.164110">
        <ele>2207.9</ele>
        <time>2020-06-22T12:00:59Z</time>
      </trkpt>
      <trkpt lat="42.834888" lon="0.163987">
        <ele>2207.9</ele>
        <time>2020-06-22T12:01:10Z</time>
      </trkpt>
      <trkpt lat="42.834900" lon="0.163778">
        <ele>2206.8</ele>
        <time>2020-06-22T12:09:27Z</time>
      </trkpt>
      <trkpt lat="42.834948" lon="0.163653">
        <ele>2205.3</ele>
        <time>2020-06-22T12:09:37Z</time>
      </trkpt>
      <trkpt lat="42.834981" lon="0.163518">
        <ele>2203.5</ele>
        <time>2020-06-22T12:09:49Z</time>
      </trkpt>
      <trkpt lat="42.835012" lon="0.163384">
        <ele>2201.8</ele>
        <time>2020-06-22T12:10:00Z</time>
      </trkpt>
      <trkpt lat="42.835017" lon="0.163249">
        <ele>2200.1</ele>
        <time>2020-06-22T12:10:21Z</time>
      </trkpt>
      <trkpt lat="42.835063" lon="0.163125">
        <ele>2198.2</ele>
        <time>2020-06-22T12:10:31Z</time>
      </trkpt>
      <trkpt lat="42.835102" lon="0.163005">
        <ele>2195.6</ele>
        <time>2020-06-22T12:10:41Z</time>
      </trkpt>
      <trkpt lat="42.835133" lon="0.162882">
        <ele>2193.6</ele>
        <time>2020-06-22T12:10:52Z</time>
      </trkpt>
      <trkpt lat="42.835188" lon="0.162768">
        <ele>2192.0</ele>
        <time>2020-06-22T12:11:01Z</time>
      </trkpt>
      <trkpt lat="42.835233" lon="0.162656">
        <ele>2189.6</ele>
        <time>2020-06-22T12:11:12Z</time>
      </trkpt>
      <trkpt lat="42.835310" lon="0.162545">
        <ele>2188.8</ele>
        <time>2020-06-22T12:11:23Z</time>
      </trkpt>
      <trkpt lat="42.835352" lon="0.162428">
        <ele>2188.8</ele>
        <time>2020-06-22T12:11:32Z</time>
      </trkpt>
      <trkpt lat="42.835400" lon="0.162310">
        <ele>2188.8</ele>
        <time>2020-06-22T12:11:41Z</time>
      </trkpt>
      <trkpt lat="42.835467" lon="0.162192">
        <ele>2188.8</ele>
        <time>2020-06-22T12:11:51Z</time>
      </trkpt>
      <trkpt lat="42.835527" lon="0.162086">
        <ele>2187.1</ele>
        <time>2020-06-22T12:12:00Z</time>
      </trkpt>
      <trkpt lat="42.835609" lon="0.161994">
        <ele>2185.2</ele>
        <time>2020-06-22T12:12:10Z</time>
      </trkpt>
      <trkpt lat="42.835661" lon="0.161871">
        <ele>2183.5</ele>
        <time>2020-06-22T12:12:21Z</time>
      </trkpt>
      <trkpt lat="42.835740" lon="0.161775">
        <ele>2182.7</ele>
        <time>2020-06-22T12:12:30Z</time>
      </trkpt>
      <trkpt lat="42.835854" lon="0.161772">
        <ele>2182.7</ele>
        <time>2020-06-22T12:12:41Z</time>
      </trkpt>
      <trkpt lat="42.835962" lon="0.161779">
        <ele>2182.7</ele>
        <time>2020-06-22T12:12:53Z</time>
      </trkpt>
      <trkpt lat="42.836079" lon="0.161764">
        <ele>2182.7</ele>
        <time>2020-06-22T12:13:06Z</time>
      </trkpt>
      <trkpt lat="42.836207" lon="0.161718">
        <ele>2182.7</ele>
        <time>2020-06-22T12:13:20Z</time>
      </trkpt>
      <trkpt lat="42.836318" lon="0.161682">
        <ele>2182.7</ele>
        <time>2020-06-22T12:13:31Z</time>
      </trkpt>
      <trkpt lat="42.836381" lon="0.161579">
        <ele>2182.8</ele>
        <time>2020-06-22T12:13:41Z</time>
      </trkpt>
      <trkpt lat="42.836419" lon="0.161448">
        <ele>2182.8</ele>
        <time>2020-06-22T12:13:51Z</time>
      </trkpt>
      <trkpt lat="42.836500" lon="0.161346">
        <ele>2185.1</ele>
        <time>2020-06-22T12:14:02Z</time>
      </trkpt>
      <trkpt lat="42.836578" lon="0.161257">
        <ele>2185.1</ele>
        <time>2020-06-22T12:14:12Z</time>
      </trkpt>
      <trkpt lat="42.836645" lon="0.161163">
        <ele>2185.1</ele>
        <time>2020-06-22T12:14:22Z</time>
      </trkpt>
      <trkpt lat="42.836728" lon="0.161072">
        <ele>2185.8</ele>
        <time>2020-06-22T12:14:31Z</time>
      </trkpt>
      <trkpt lat="42.836789" lon="0.160980">
        <ele>2185.8</ele>
        <time>2020-06-22T12:14:40Z</time>
      </trkpt>
      <trkpt lat="42.836849" lon="0.160868">
        <ele>2185.8</ele>
        <time>2020-06-22T12:14:51Z</time>
      </trkpt>
      <trkpt lat="42.836919" lon="0.160775">
        <ele>2186.7</ele>
        <time>2020-06-22T12:15:00Z</time>
      </trkpt>
      <trkpt lat="42.836987" lon="0.160672">
        <ele>2187.6</ele>
        <time>2020-06-22T12:15:10Z</time>
      </trkpt>
      <trkpt lat="42.837048" lon="0.160570">
        <ele>2187.6</ele>
        <time>2020-06-22T12:15:19Z</time>
      </trkpt>
      <trkpt lat="42.837109" lon="0.160462">
        <ele>2187.6</ele>
        <time>2020-06-22T12:15:28Z</time>
      </trkpt>
      <trkpt lat="42.837176" lon="0.160367">
        <ele>2187.6</ele>
        <time>2020-06-22T12:15:36Z</time>
      </trkpt>
      <trkpt lat="42.837235" lon="0.160266">
        <ele>2188.6</ele>
        <time>2020-06-22T12:15:45Z</time>
      </trkpt>
      <trkpt lat="42.837289" lon="0.160159">
        <ele>2189.5</ele>
        <time>2020-06-22T12:15:55Z</time>
      </trkpt>
      <trkpt lat="42.837348" lon="0.160046">
        <ele>2190.3</ele>
        <time>2020-06-22T12:16:06Z</time>
      </trkpt>
      <trkpt lat="42.837406" lon="0.159943">
        <ele>2191.1</ele>
        <time>2020-06-22T12:16:16Z</time>
      </trkpt>
      <trkpt lat="42.837436" lon="0.159820">
        <ele>2192.7</ele>
        <time>2020-06-22T12:16:27Z</time>
      </trkpt>
      <trkpt lat="42.837485" lon="0.159695">
        <ele>2193.5</ele>
        <time>2020-06-22T12:16:38Z</time>
      </trkpt>
      <trkpt lat="42.837520" lon="0.159564">
        <ele>2194.3</ele>
        <time>2020-06-22T12:16:49Z</time>
      </trkpt>
      <trkpt lat="42.837580" lon="0.159460">
        <ele>2195.9</ele>
        <time>2020-06-22T12:16:58Z</time>
      </trkpt>
      <trkpt lat="42.837648" lon="0.159368">
        <ele>2196.7</ele>
        <time>2020-06-22T12:17:08Z</time>
      </trkpt>
      <trkpt lat="42.837703" lon="0.159262">
        <ele>2197.5</ele>
        <time>2020-06-22T12:17:17Z</time>
      </trkpt>
      <trkpt lat="42.837755" lon="0.159147">
        <ele>2197.5</ele>
        <time>2020-06-22T12:17:26Z</time>
      </trkpt>
      <trkpt lat="42.837794" lon="0.159026">
        <ele>2198.3</ele>
        <time>2020-06-22T12:17:35Z</time>
      </trkpt>
      <trkpt lat="42.837842" lon="0.158902">
        <ele>2198.3</ele>
        <time>2020-06-22T12:17:44Z</time>
      </trkpt>
      <trkpt lat="42.837880" lon="0.158784">
        <ele>2198.3</ele>
        <time>2020-06-22T12:17:53Z</time>
      </trkpt>
      <trkpt lat="42.837922" lon="0.158668">
        <ele>2198.2</ele>
        <time>2020-06-22T12:18:02Z</time>
      </trkpt>
      <trkpt lat="42.837941" lon="0.158545">
        <ele>2199.1</ele>
        <time>2020-06-22T12:18:12Z</time>
      </trkpt>
      <trkpt lat="42.837963" lon="0.158418">
        <ele>2199.9</ele>
        <time>2020-06-22T12:18:21Z</time>
      </trkpt>
      <trkpt lat="42.837999" lon="0.158294">
        <ele>2199.9</ele>
        <time>2020-06-22T12:18:30Z</time>
      </trkpt>
      <trkpt lat="42.838043" lon="0.158160">
        <ele>2199.9</ele>
        <time>2020-06-22T12:18:39Z</time>
      </trkpt>
      <trkpt lat="42.838085" lon="0.158038">
        <ele>2200.7</ele>
        <time>2020-06-22T12:18:48Z</time>
      </trkpt>
      <trkpt lat="42.838105" lon="0.157910">
        <ele>2200.7</ele>
        <time>2020-06-22T12:18:57Z</time>
      </trkpt>
      <trkpt lat="42.838126" lon="0.157788">
        <ele>2200.7</ele>
        <time>2020-06-22T12:19:06Z</time>
      </trkpt>
      <trkpt lat="42.838158" lon="0.157677">
        <ele>2200.7</ele>
        <time>2020-06-22T12:19:16Z</time>
      </trkpt>
      <trkpt lat="42.838244" lon="0.157645">
        <ele>2200.6</ele>
        <time>2020-06-22T12:19:55Z</time>
      </trkpt>
      <trkpt lat="42.838244" lon="0.157521">
        <ele>2200.6</ele>
        <time>2020-06-22T12:20:12Z</time>
      </trkpt>
      <trkpt lat="42.838251" lon="0.157445">
        <ele>2200.6</ele>
        <time>2020-06-22T12:21:05Z</time>
      </trkpt>
      <trkpt lat="42.838247" lon="0.157307">
        <ele>2200.5</ele>
        <time>2020-06-22T12:21:15Z</time>
      </trkpt>
      <trkpt lat="42.838240" lon="0.157170">
        <ele>2200.5</ele>
        <time>2020-06-22T12:21:24Z</time>
      </trkpt>
      <trkpt lat="42.838276" lon="0.157038">
        <ele>2200.6</ele>
        <time>2020-06-22T12:21:34Z</time>
      </trkpt>
      <trkpt lat="42.838311" lon="0.156921">
        <ele>2200.6</ele>
        <time>2020-06-22T12:21:42Z</time>
      </trkpt>
      <trkpt lat="42.838328" lon="0.156799">
        <ele>2200.6</ele>
        <time>2020-06-22T12:21:53Z</time>
      </trkpt>
      <trkpt lat="42.838319" lon="0.156685">
        <ele>2200.5</ele>
        <time>2020-06-22T12:22:17Z</time>
      </trkpt>
      <trkpt lat="42.838326" lon="0.156557">
        <ele>2200.4</ele>
        <time>2020-06-22T12:22:26Z</time>
      </trkpt>
      <trkpt lat="42.838343" lon="0.156419">
        <ele>2200.5</ele>
        <time>2020-06-22T12:22:36Z</time>
      </trkpt>
      <trkpt lat="42.838356" lon="0.156295">
        <ele>2200.4</ele>
        <time>2020-06-22T12:23:40Z</time>
      </trkpt>
      <trkpt lat="42.838447" lon="0.156241">
        <ele>2200.4</ele>
        <time>2020-06-22T12:23:50Z</time>
      </trkpt>
      <trkpt lat="42.838528" lon="0.156158">
        <ele>2197.3</ele>
        <time>2020-06-22T12:24:01Z</time>
      </trkpt>
      <trkpt lat="42.838589" lon="0.156052">
        <ele>2195.6</ele>
        <time>2020-06-22T12:24:11Z</time>
      </trkpt>
      <trkpt lat="42.838642" lon="0.155950">
        <ele>2194.9</ele>
        <time>2020-06-22T12:24:20Z</time>
      </trkpt>
      <trkpt lat="42.838680" lon="0.155827">
        <ele>2195.0</ele>
        <time>2020-06-22T12:24:30Z</time>
      </trkpt>
      <trkpt lat="42.838736" lon="0.155714">
        <ele>2193.1</ele>
        <time>2020-06-22T12:24:41Z</time>
      </trkpt>
      <trkpt lat="42.838777" lon="0.155603">
        <ele>2192.2</ele>
        <time>2020-06-22T12:24:50Z</time>
      </trkpt>
      <trkpt lat="42.838804" lon="0.155484">
        <ele>2192.3</ele>
        <time>2020-06-22T12:24:59Z</time>
      </trkpt>
      <trkpt lat="42.838811" lon="0.155352">
        <ele>2192.3</ele>
        <time>2020-06-22T12:25:09Z</time>
      </trkpt>
      <trkpt lat="42.838820" lon="0.155227">
        <ele>2191.4</ele>
        <time>2020-06-22T12:25:19Z</time>
      </trkpt>
      <trkpt lat="42.838830" lon="0.155101">
        <ele>2191.5</ele>
        <time>2020-06-22T12:25:36Z</time>
      </trkpt>
      <trkpt lat="42.838811" lon="0.154978">
        <ele>2191.4</ele>
        <time>2020-06-22T12:25:48Z</time>
      </trkpt>
      <trkpt lat="42.838846" lon="0.154847">
        <ele>2191.4</ele>
        <time>2020-06-22T12:25:58Z</time>
      </trkpt>
      <trkpt lat="42.838880" lon="0.154715">
        <ele>2191.4</ele>
        <time>2020-06-22T12:26:08Z</time>
      </trkpt>
      <trkpt lat="42.838911" lon="0.154579">
        <ele>2191.4</ele>
        <time>2020-06-22T12:26:19Z</time>
      </trkpt>
      <trkpt lat="42.838927" lon="0.154451">
        <ele>2191.4</ele>
        <time>2020-06-22T12:26:30Z</time>
      </trkpt>
      <trkpt lat="42.838958" lon="0.154330">
        <ele>2191.4</ele>
        <time>2020-06-22T12:27:21Z</time>
      </trkpt>
      <trkpt lat="42.838932" lon="0.154197">
        <ele>2191.4</ele>
        <time>2020-06-22T12:27:32Z</time>
      </trkpt>
      <trkpt lat="42.838918" lon="0.154060">
        <ele>2191.4</ele>
        <time>2020-06-22T12:27:42Z</time>
      </trkpt>
      <trkpt lat="42.838876" lon="0.153923">
        <ele>2191.4</ele>
        <time>2020-06-22T12:27:54Z</time>
      </trkpt>
      <trkpt lat="42.838878" lon="0.153772">
        <ele>2191.3</ele>
        <time>2020-06-22T12:28:08Z</time>
      </trkpt>
      <trkpt lat="42.838883" lon="0.153712">
        <ele>2191.1</ele>
        <time>2020-06-22T12:29:02Z</time>
      </trkpt>
      <trkpt lat="42.838864" lon="0.153619">
        <ele>2191.0</ele>
        <time>2020-06-22T12:30:40Z</time>
      </trkpt>
      <trkpt lat="42.838860" lon="0.153491">
        <ele>2191.0</ele>
        <time>2020-06-22T12:30:50Z</time>
      </trkpt>
      <trkpt lat="42.838860" lon="0.153356">
        <ele>2191.0</ele>
        <time>2020-06-22T12:31:01Z</time>
      </trkpt>
      <trkpt lat="42.838890" lon="0.153228">
        <ele>2190.9</ele>
        <time>2020-06-22T12:31:12Z</time>
      </trkpt>
      <trkpt lat="42.838925" lon="0.153088">
        <ele>2190.9</ele>
        <time>2020-06-22T12:32:18Z</time>
      </trkpt>
      <trkpt lat="42.838898" lon="0.152957">
        <ele>2190.9</ele>
        <time>2020-06-22T12:32:27Z</time>
      </trkpt>
      <trkpt lat="42.838904" lon="0.152811">
        <ele>2190.9</ele>
        <time>2020-06-22T12:32:36Z</time>
      </trkpt>
      <trkpt lat="42.838901" lon="0.152677">
        <ele>2190.9</ele>
        <time>2020-06-22T12:32:45Z</time>
      </trkpt>
      <trkpt lat="42.838911" lon="0.152541">
        <ele>2190.9</ele>
        <time>2020-06-22T12:32:54Z</time>
      </trkpt>
      <trkpt lat="42.838918" lon="0.152415">
        <ele>2190.9</ele>
        <time>2020-06-22T12:33:05Z</time>
      </trkpt>
      <trkpt lat="42.838946" lon="0.152293">
        <ele>2190.9</ele>
        <time>2020-06-22T12:33:14Z</time>
      </trkpt>
      <trkpt lat="42.838990" lon="0.152179">
        <ele>2190.9</ele>
        <time>2020-06-22T12:33:22Z</time>
      </trkpt>
      <trkpt lat="42.839023" lon="0.152056">
        <ele>2190.9</ele>
        <time>2020-06-22T12:33:32Z</time>
      </trkpt>
      <trkpt lat="42.839072" lon="0.151942">
        <ele>2190.9</ele>
        <time>2020-06-22T12:33:42Z</time>
      </trkpt>
      <trkpt lat="42.839090" lon="0.151829">
        <ele>2190.9</ele>
        <time>2020-06-22T12:33:51Z</time>
      </trkpt>
      <trkpt lat="42.839093" lon="0.151713">
        <ele>2190.9</ele>
        <time>2020-06-22T12:34:00Z</time>
      </trkpt>
      <trkpt lat="42.839098" lon="0.151577">
        <ele>2190.8</ele>
        <time>2020-06-22T12:34:10Z</time>
      </trkpt>
      <trkpt lat="42.839150" lon="0.151454">
        <ele>2190.8</ele>
        <time>2020-06-22T12:34:19Z</time>
      </trkpt>
      <trkpt lat="42.839196" lon="0.151321">
        <ele>2190.8</ele>
        <time>2020-06-22T12:34:28Z</time>
      </trkpt>
      <trkpt lat="42.839245" lon="0.151199">
        <ele>2190.8</ele>
        <time>2020-06-22T12:34:37Z</time>
      </trkpt>
      <trkpt lat="42.839272" lon="0.151072">
        <ele>2190.8</ele>
        <time>2020-06-22T12:34:47Z</time>
      </trkpt>
      <trkpt lat="42.839315" lon="0.150955">
        <ele>2190.8</ele>
        <time>2020-06-22T12:34:57Z</time>
      </trkpt>
      <trkpt lat="42.839341" lon="0.150838">
        <ele>2190.8</ele>
        <time>2020-06-22T12:35:05Z</time>
      </trkpt>
      <trkpt lat="42.839351" lon="0.150707">
        <ele>2190.8</ele>
        <time>2020-06-22T12:35:14Z</time>
      </trkpt>
      <trkpt lat="42.839361" lon="0.150577">
        <ele>2190.8</ele>
        <time>2020-06-22T12:35:23Z</time>
      </trkpt>
      <trkpt lat="42.839344" lon="0.150453">
        <ele>2193.3</ele>
        <time>2020-06-22T12:35:32Z</time>
      </trkpt>
      <trkpt lat="42.839352" lon="0.150318">
        <ele>2193.3</ele>
        <time>2020-06-22T12:35:41Z</time>
      </trkpt>
      <trkpt lat="42.839357" lon="0.150183">
        <ele>2194.1</ele>
        <time>2020-06-22T12:35:50Z</time>
      </trkpt>
      <trkpt lat="42.839379" lon="0.150065">
        <ele>2194.1</ele>
        <time>2020-06-22T12:35:59Z</time>
      </trkpt>
      <trkpt lat="42.839450" lon="0.149970">
        <ele>2194.0</ele>
        <time>2020-06-22T12:36:09Z</time>
      </trkpt>
      <trkpt lat="42.839526" lon="0.149908">
        <ele>2191.6</ele>
        <time>2020-06-22T12:36:29Z</time>
      </trkpt>
      <trkpt lat="42.839537" lon="0.149770">
        <ele>2191.6</ele>
        <time>2020-06-22T12:36:48Z</time>
      </trkpt>
      <trkpt lat="42.839541" lon="0.149644">
        <ele>2191.6</ele>
        <time>2020-06-22T12:36:58Z</time>
      </trkpt>
      <trkpt lat="42.839529" lon="0.149518">
        <ele>2191.6</ele>
        <time>2020-06-22T12:37:08Z</time>
      </trkpt>
      <trkpt lat="42.839480" lon="0.149409">
        <ele>2191.6</ele>
        <time>2020-06-22T12:37:19Z</time>
      </trkpt>
      <trkpt lat="42.839409" lon="0.149293">
        <ele>2190.6</ele>
        <time>2020-06-22T12:37:31Z</time>
      </trkpt>
      <trkpt lat="42.839340" lon="0.149180">
        <ele>2188.5</ele>
        <time>2020-06-22T12:37:43Z</time>
      </trkpt>
      <trkpt lat="42.839275" lon="0.149054">
        <ele>2185.8</ele>
        <time>2020-06-22T12:37:57Z</time>
      </trkpt>
      <trkpt lat="42.839205" lon="0.148930">
        <ele>2182.9</ele>
        <time>2020-06-22T12:38:10Z</time>
      </trkpt>
      <trkpt lat="42.839105" lon="0.148797">
        <ele>2179.1</ele>
        <time>2020-06-22T12:38:24Z</time>
      </trkpt>
      <trkpt lat="42.839050" lon="0.148663">
        <ele>2178.2</ele>
        <time>2020-06-22T12:38:37Z</time>
      </trkpt>
      <trkpt lat="42.838956" lon="0.148539">
        <ele>2178.1</ele>
        <time>2020-06-22T12:38:49Z</time>
      </trkpt>
      <trkpt lat="42.838921" lon="0.148363">
        <ele>2176.4</ele>
        <time>2020-06-22T12:39:00Z</time>
      </trkpt>
      <trkpt lat="42.838945" lon="0.148221">
        <ele>2176.3</ele>
        <time>2020-06-22T12:39:13Z</time>
      </trkpt>
      <trkpt lat="42.838957" lon="0.148078">
        <ele>2174.2</ele>
        <time>2020-06-22T12:39:31Z</time>
      </trkpt>
      <trkpt lat="42.838930" lon="0.147923">
        <ele>2174.1</ele>
        <time>2020-06-22T12:39:44Z</time>
      </trkpt>
      <trkpt lat="42.838924" lon="0.147778">
        <ele>2174.0</ele>
        <time>2020-06-22T12:39:55Z</time>
      </trkpt>
      <trkpt lat="42.838965" lon="0.147654">
        <ele>2174.0</ele>
        <time>2020-06-22T12:40:06Z</time>
      </trkpt>
      <trkpt lat="42.839005" lon="0.147521">
        <ele>2173.9</ele>
        <time>2020-06-22T12:40:19Z</time>
      </trkpt>
      <trkpt lat="42.839017" lon="0.147366">
        <ele>2173.8</ele>
        <time>2020-06-22T12:40:29Z</time>
      </trkpt>
      <trkpt lat="42.839032" lon="0.147227">
        <ele>2173.7</ele>
        <time>2020-06-22T12:40:39Z</time>
      </trkpt>
      <trkpt lat="42.839051" lon="0.147071">
        <ele>2173.6</ele>
        <time>2020-06-22T12:40:51Z</time>
      </trkpt>
      <trkpt lat="42.839120" lon="0.146931">
        <ele>2173.6</ele>
        <time>2020-06-22T12:41:03Z</time>
      </trkpt>
      <trkpt lat="42.839143" lon="0.146799">
        <ele>2173.5</ele>
        <time>2020-06-22T12:41:18Z</time>
      </trkpt>
      <trkpt lat="42.839123" lon="0.146671">
        <ele>2171.4</ele>
        <time>2020-06-22T12:41:44Z</time>
      </trkpt>
      <trkpt lat="42.839188" lon="0.146582">
        <ele>2171.3</ele>
        <time>2020-06-22T12:42:10Z</time>
      </trkpt>
      <trkpt lat="42.839205" lon="0.146470">
        <ele>2171.2</ele>
        <time>2020-06-22T12:42:32Z</time>
      </trkpt>
      <trkpt lat="42.839263" lon="0.146338">
        <ele>2171.2</ele>
        <time>2020-06-22T12:42:42Z</time>
      </trkpt>
      <trkpt lat="42.839313" lon="0.146210">
        <ele>2171.2</ele>
        <time>2020-06-22T12:42:53Z</time>
      </trkpt>
      <trkpt lat="42.839403" lon="0.146105">
        <ele>2171.1</ele>
        <time>2020-06-22T12:43:06Z</time>
      </trkpt>
      <trkpt lat="42.839473" lon="0.145986">
        <ele>2171.1</ele>
        <time>2020-06-22T12:43:19Z</time>
      </trkpt>
      <trkpt lat="42.839538" lon="0.145868">
        <ele>2170.9</ele>
        <time>2020-06-22T12:43:37Z</time>
      </trkpt>
      <trkpt lat="42.839610" lon="0.145776">
        <ele>2169.1</ele>
        <time>2020-06-22T12:43:54Z</time>
      </trkpt>
      <trkpt lat="42.839690" lon="0.145665">
        <ele>2168.2</ele>
        <time>2020-06-22T12:44:07Z</time>
      </trkpt>
      <trkpt lat="42.839794" lon="0.145610">
        <ele>2167.4</ele>
        <time>2020-06-22T12:44:22Z</time>
      </trkpt>
      <trkpt lat="42.839863" lon="0.145494">
        <ele>2166.5</ele>
        <time>2020-06-22T12:44:39Z</time>
      </trkpt>
      <trkpt lat="42.839891" lon="0.145346">
        <ele>2164.8</ele>
        <time>2020-06-22T12:44:54Z</time>
      </trkpt>
      <trkpt lat="42.839955" lon="0.145220">
        <ele>2164.8</ele>
        <time>2020-06-22T12:45:08Z</time>
      </trkpt>
      <trkpt lat="42.839981" lon="0.145054">
        <ele>2161.9</ele>
        <time>2020-06-22T12:45:26Z</time>
      </trkpt>
      <trkpt lat="42.840040" lon="0.144891">
        <ele>2160.9</ele>
        <time>2020-06-22T12:45:38Z</time>
      </trkpt>
      <trkpt lat="42.840076" lon="0.144759">
        <ele>2160.1</ele>
        <time>2020-06-22T12:45:53Z</time>
      </trkpt>
      <trkpt lat="42.840094" lon="0.144617">
        <ele>2160.0</ele>
        <time>2020-06-22T12:46:05Z</time>
      </trkpt>
      <trkpt lat="42.840152" lon="0.144509">
        <ele>2159.1</ele>
        <time>2020-06-22T12:46:15Z</time>
      </trkpt>
      <trkpt lat="42.840212" lon="0.144393">
        <ele>2158.0</ele>
        <time>2020-06-22T12:46:25Z</time>
      </trkpt>
      <trkpt lat="42.840266" lon="0.144275">
        <ele>2158.0</ele>
        <time>2020-06-22T12:46:34Z</time>
      </trkpt>
      <trkpt lat="42.840345" lon="0.144167">
        <ele>2157.1</ele>
        <time>2020-06-22T12:46:44Z</time>
      </trkpt>
      <trkpt lat="42.840373" lon="0.144113">
        <ele>2155.4</ele>
        <time>2020-06-22T12:46:49Z</time>
      </trkpt>
    </trkseg>
  </trk>
</gpx>

